<?xml version="1.0" encoding="UTF-8" standalone="no" ?><gpx xmlns="http://www.topografix.com/GPX/1/1" xmlns:gpxx="http://www.garmin.com/xmlschemas/GpxExtensions/v3" xmlns:wptx1="http://www.garmin.com/xmlschemas/WaypointExtension/v1" xmlns:gpxtpx="http://www.garmin.com/xmlschemas/TrackPointExtension/v1" creator="GuideVTT.com" version="1.1" xmlns:xsi="http://www.w3.org/2001/XMLSchema-instance" xsi:schemaLocation="http://www.topografix.com/GPX/1/1 http://www.topografix.com/GPX/1/1/gpx.xsd http://www.garmin.com/xmlschemas/GpxExtensions/v3 http://www8.garmin.com/xmlschemas/GpxExtensionsv3.xsd http://www.garmin.com/xmlschemas/WaypointExtension/v1 http://www8.garmin.com/xmlschemas/WaypointExtensionv1.xsd http://www.garmin.com/xmlschemas/TrackPointExtension/v1 http://www.garmin.com/xmlschemas/TrackPointExtensionv1.xsd">
<metadata><link href="http://www.garmin.com"><text>Garmin International</text></link><time>2013-06-22T15:13:50Z</time></metadata>
<trk><name>automnale_douai_csv.gpx</name><extensions><gpxx:TrackExtension><gpxx:DisplayColor>Cyan</gpxx:DisplayColor></gpxx:TrackExtension></extensions><trkseg>
<trkpt lat="50.39896000" lon="3.09504430"><ele>48.68396</ele><time>2009-09-13T06:47:04Z</time></trkpt>
<trkpt lat="50.39987230" lon="3.09266380"><ele>45.319214</ele><time>2009-09-13T06:47:28Z</time></trkpt>
<trkpt lat="50.39987110" lon="3.09267370"><ele>41.954712</ele><time>2009-09-13T06:47:33Z</time></trkpt>
<trkpt lat="50.39987780" lon="3.09270240"><ele>38.590088</ele><time>2009-09-13T06:47:39Z</time></trkpt>
<trkpt lat="50.39987820" lon="3.09270530"><ele>35.225464</ele><time>2009-09-13T06:47:46Z</time></trkpt>
<trkpt lat="50.39987810" lon="3.09270580"><ele>31.860718</ele><time>2009-09-13T06:47:55Z</time></trkpt>
<trkpt lat="50.39987770" lon="3.09270580"><ele>28.976929</ele><time>2009-09-13T06:48:07Z</time></trkpt>
<trkpt lat="50.39987330" lon="3.09271740"><ele>26.092896</ele><time>2009-09-13T06:48:27Z</time></trkpt>
<trkpt lat="50.39990280" lon="3.09276860"><ele>22.728271</ele><time>2009-09-13T06:48:47Z</time></trkpt>
<trkpt lat="50.39989410" lon="3.09278400"><ele>19.84436</ele><time>2009-09-13T06:49:12Z</time></trkpt>
<trkpt lat="50.39988720" lon="3.09277350"><ele>13.115112</ele><time>2009-09-13T06:51:21Z</time></trkpt>
<trkpt lat="50.39988760" lon="3.09277450"><ele>20.324951</ele><time>2009-09-13T06:51:22Z</time></trkpt>
<trkpt lat="50.39988690" lon="3.09277190"><ele>16.960449</ele><time>2009-09-13T06:51:29Z</time></trkpt>
<trkpt lat="50.39986850" lon="3.09277920"><ele>17.441162</ele><time>2009-09-13T06:55:02Z</time></trkpt>
<trkpt lat="50.39978210" lon="3.09268050"><ele>17.441162</ele><time>2009-09-13T06:55:06Z</time></trkpt>
<trkpt lat="50.39972600" lon="3.09267440"><ele>16.960449</ele><time>2009-09-13T06:55:08Z</time></trkpt>
<trkpt lat="50.39969250" lon="3.09248830"><ele>16.960449</ele><time>2009-09-13T06:55:16Z</time></trkpt>
<trkpt lat="50.39960860" lon="3.09232690"><ele>16.479736</ele><time>2009-09-13T06:55:19Z</time></trkpt>
<trkpt lat="50.39960860" lon="3.09212070"><ele>16.960449</ele><time>2009-09-13T06:55:22Z</time></trkpt>
<trkpt lat="50.39960860" lon="3.09225310"><ele>16.960449</ele><time>2009-09-13T06:55:29Z</time></trkpt>
<trkpt lat="50.39960860" lon="3.09239510"><ele>16.479736</ele><time>2009-09-13T06:55:32Z</time></trkpt>
<trkpt lat="50.39962770" lon="3.09262750"><ele>15.999023</ele><time>2009-09-13T06:55:36Z</time></trkpt>
<trkpt lat="50.39949540" lon="3.09315110"><ele>16.479736</ele><time>2009-09-13T06:55:42Z</time></trkpt>
<trkpt lat="50.39949810" lon="3.09324380"><ele>17.441162</ele><time>2009-09-13T06:55:44Z</time></trkpt>
<trkpt lat="50.39950050" lon="3.09332170"><ele>17.441162</ele><time>2009-09-13T06:55:47Z</time></trkpt>
<trkpt lat="50.39920900" lon="3.09344640"><ele>17.921753</ele><time>2009-09-13T06:55:58Z</time></trkpt>
<trkpt lat="50.39918460" lon="3.09350620"><ele>18.402344</ele><time>2009-09-13T06:56:11Z</time></trkpt>
<trkpt lat="50.39910830" lon="3.09370280"><ele>10.711792</ele><time>2009-09-13T06:59:14Z</time></trkpt>
<trkpt lat="50.39910900" lon="3.09369990"><ele>16.960449</ele><time>2009-09-13T06:59:15Z</time></trkpt>
<trkpt lat="50.39910960" lon="3.09369870"><ele>21.766968</ele><time>2009-09-13T06:59:16Z</time></trkpt>
<trkpt lat="50.39910850" lon="3.09370260"><ele>18.883057</ele><time>2009-09-13T06:59:17Z</time></trkpt>
<trkpt lat="50.39911310" lon="3.09369380"><ele>16.479736</ele><time>2009-09-13T06:59:45Z</time></trkpt>
<trkpt lat="50.39911400" lon="3.09369290"><ele>17.921753</ele><time>2009-09-13T06:59:47Z</time></trkpt>
<trkpt lat="50.39916370" lon="3.09356830"><ele>18.402344</ele><time>2009-09-13T07:01:50Z</time></trkpt>
<trkpt lat="50.39916690" lon="3.09356030"><ele>18.402344</ele><time>2009-09-13T07:02:31Z</time></trkpt>
<trkpt lat="50.39920950" lon="3.09346020"><ele>18.402344</ele><time>2009-09-13T07:02:35Z</time></trkpt>
<trkpt lat="50.39946440" lon="3.09336150"><ele>17.921753</ele><time>2009-09-13T07:02:49Z</time></trkpt>
<trkpt lat="50.39948350" lon="3.09335150"><ele>17.921753</ele><time>2009-09-13T07:02:54Z</time></trkpt>
<trkpt lat="50.39953570" lon="3.09309440"><ele>16.960449</ele><time>2009-09-13T07:03:00Z</time></trkpt>
<trkpt lat="50.39948180" lon="3.09269610"><ele>16.479736</ele><time>2009-09-13T07:03:06Z</time></trkpt>
<trkpt lat="50.39946770" lon="3.09257220"><ele>16.479736</ele><time>2009-09-13T07:03:08Z</time></trkpt>
<trkpt lat="50.39960860" lon="3.09200760"><ele>15.999023</ele><time>2009-09-13T07:03:17Z</time></trkpt>
<trkpt lat="50.39960860" lon="3.09200760"><ele>15.999023</ele><time>2009-09-13T07:03:19Z</time></trkpt>
<trkpt lat="50.39947990" lon="3.09128460"><ele>16.479736</ele><time>2009-09-13T07:03:25Z</time></trkpt>
<trkpt lat="50.39947990" lon="3.09091280"><ele>16.479736</ele><time>2009-09-13T07:03:30Z</time></trkpt>
<trkpt lat="50.39947300" lon="3.08951650"><ele>15.518433</ele><time>2009-09-13T07:03:45Z</time></trkpt>
<trkpt lat="50.39950810" lon="3.08770760"><ele>15.999023</ele><time>2009-09-13T07:04:03Z</time></trkpt>
<trkpt lat="50.39979800" lon="3.08647320"><ele>16.479736</ele><time>2009-09-13T07:04:16Z</time></trkpt>
<trkpt lat="50.40014660" lon="3.08594050"><ele>15.518433</ele><time>2009-09-13T07:04:24Z</time></trkpt>
<trkpt lat="50.40044660" lon="3.08570600"><ele>14.557007</ele><time>2009-09-13T07:04:29Z</time></trkpt>
<trkpt lat="50.40094120" lon="3.08554110"><ele>15.999023</ele><time>2009-09-13T07:04:37Z</time></trkpt>
<trkpt lat="50.40116220" lon="3.08585370"><ele>16.960449</ele><time>2009-09-13T07:04:43Z</time></trkpt>
<trkpt lat="50.40119870" lon="3.08604410"><ele>17.441162</ele><time>2009-09-13T07:04:45Z</time></trkpt>
<trkpt lat="50.40138810" lon="3.08725860"><ele>18.402344</ele><time>2009-09-13T07:04:58Z</time></trkpt>
<trkpt lat="50.40159040" lon="3.08859500"><ele>16.960449</ele><time>2009-09-13T07:05:12Z</time></trkpt>
<trkpt lat="50.40177980" lon="3.08998970"><ele>16.479736</ele><time>2009-09-13T07:05:25Z</time></trkpt>
<trkpt lat="50.40197260" lon="3.09159940"><ele>15.999023</ele><time>2009-09-13T07:05:40Z</time></trkpt>
<trkpt lat="50.40205040" lon="3.09189870"><ele>16.960449</ele><time>2009-09-13T07:05:43Z</time></trkpt>
<trkpt lat="50.40246680" lon="3.09337090"><ele>16.960449</ele><time>2009-09-13T07:05:58Z</time></trkpt>
<trkpt lat="50.40249700" lon="3.09345160"><ele>16.960449</ele><time>2009-09-13T07:05:59Z</time></trkpt>
<trkpt lat="50.40256800" lon="3.09369580"><ele>17.441162</ele><time>2009-09-13T07:06:02Z</time></trkpt>
<trkpt lat="50.40258530" lon="3.09376490"><ele>18.883057</ele><time>2009-09-13T07:06:10Z</time></trkpt>
<trkpt lat="50.40263410" lon="3.09415340"><ele>18.883057</ele><time>2009-09-13T07:06:14Z</time></trkpt>
<trkpt lat="50.40249010" lon="3.09501760"><ele>18.402344</ele><time>2009-09-13T07:06:25Z</time></trkpt>
<trkpt lat="50.40238290" lon="3.09584910"><ele>17.921753</ele><time>2009-09-13T07:06:38Z</time></trkpt>
<trkpt lat="50.40233320" lon="3.09615120"><ele>19.36377</ele><time>2009-09-13T07:06:48Z</time></trkpt>
<trkpt lat="50.40214210" lon="3.09665960"><ele>18.883057</ele><time>2009-09-13T07:06:58Z</time></trkpt>
<trkpt lat="50.40212040" lon="3.09676480"><ele>18.883057</ele><time>2009-09-13T07:07:01Z</time></trkpt>
<trkpt lat="50.40211450" lon="3.09679420"><ele>19.36377</ele><time>2009-09-13T07:07:05Z</time></trkpt>
<trkpt lat="50.40222330" lon="3.09644230"><ele>18.883057</ele><time>2009-09-13T07:07:15Z</time></trkpt>
<trkpt lat="50.40231680" lon="3.09621670"><ele>18.883057</ele><time>2009-09-13T07:07:20Z</time></trkpt>
<trkpt lat="50.40239860" lon="3.09572700"><ele>17.441162</ele><time>2009-09-13T07:07:30Z</time></trkpt>
<trkpt lat="50.40289250" lon="3.09615820"><ele>17.441162</ele><time>2009-09-13T07:07:32Z</time></trkpt>
<trkpt lat="50.40345610" lon="3.09571320"><ele>18.402344</ele><time>2009-09-13T07:07:44Z</time></trkpt>
<trkpt lat="50.40372050" lon="3.09546850"><ele>18.883057</ele><time>2009-09-13T07:07:53Z</time></trkpt>
<trkpt lat="50.40375450" lon="3.09544150"><ele>19.36377</ele><time>2009-09-13T07:07:54Z</time></trkpt>
<trkpt lat="50.40390490" lon="3.09532110"><ele>21.286377</ele><time>2009-09-13T07:07:57Z</time></trkpt>
<trkpt lat="50.40399640" lon="3.09524350"><ele>20.805664</ele><time>2009-09-13T07:07:59Z</time></trkpt>
<trkpt lat="50.40437480" lon="3.09492120"><ele>21.286377</ele><time>2009-09-13T07:08:09Z</time></trkpt>
<trkpt lat="50.40474350" lon="3.09466000"><ele>22.728271</ele><time>2009-09-13T07:08:18Z</time></trkpt>
<trkpt lat="50.40489480" lon="3.09453590"><ele>23.208984</ele><time>2009-09-13T07:08:21Z</time></trkpt>
<trkpt lat="50.40522350" lon="3.09422000"><ele>21.766968</ele><time>2009-09-13T07:08:26Z</time></trkpt>
<trkpt lat="50.40543490" lon="3.09384570"><ele>20.324951</ele><time>2009-09-13T07:08:33Z</time></trkpt>
<trkpt lat="50.40564450" lon="3.09393090"><ele>21.766968</ele><time>2009-09-13T07:08:35Z</time></trkpt>
<trkpt lat="50.40574130" lon="3.09387280"><ele>22.247559</ele><time>2009-09-13T07:08:37Z</time></trkpt>
<trkpt lat="50.40606120" lon="3.09363050"><ele>23.689575</ele><time>2009-09-13T07:08:44Z</time></trkpt>
<trkpt lat="50.40643330" lon="3.09339320"><ele>23.208984</ele><time>2009-09-13T07:08:52Z</time></trkpt>
<trkpt lat="50.40710450" lon="3.09278610"><ele>23.689575</ele><time>2009-09-13T07:09:06Z</time></trkpt>
<trkpt lat="50.40738130" lon="3.09253320"><ele>21.766968</ele><time>2009-09-13T07:09:12Z</time></trkpt>
<trkpt lat="50.40793270" lon="3.09200920"><ele>20.805664</ele><time>2009-09-13T07:09:23Z</time></trkpt>
<trkpt lat="50.40864890" lon="3.09111260"><ele>19.84436</ele><time>2009-09-13T07:09:39Z</time></trkpt>
<trkpt lat="50.40924710" lon="3.09038430"><ele>18.883057</ele><time>2009-09-13T07:09:52Z</time></trkpt>
<trkpt lat="50.40932970" lon="3.09026230"><ele>18.883057</ele><time>2009-09-13T07:09:54Z</time></trkpt>
<trkpt lat="50.40953830" lon="3.08995430"><ele>18.883057</ele><time>2009-09-13T07:09:59Z</time></trkpt>
<trkpt lat="50.40962610" lon="3.08981600"><ele>18.402344</ele><time>2009-09-13T07:10:01Z</time></trkpt>
<trkpt lat="50.40970290" lon="3.08968540"><ele>18.402344</ele><time>2009-09-13T07:10:03Z</time></trkpt>
<trkpt lat="50.40981700" lon="3.08948650"><ele>18.883057</ele><time>2009-09-13T07:10:06Z</time></trkpt>
<trkpt lat="50.40995430" lon="3.08921200"><ele>18.883057</ele><time>2009-09-13T07:10:10Z</time></trkpt>
<trkpt lat="50.41022070" lon="3.08929440"><ele>18.883057</ele><time>2009-09-13T07:10:18Z</time></trkpt>
<trkpt lat="50.41040890" lon="3.08944320"><ele>18.402344</ele><time>2009-09-13T07:10:22Z</time></trkpt>
<trkpt lat="50.41111710" lon="3.09023680"><ele>17.921753</ele><time>2009-09-13T07:10:37Z</time></trkpt>
<trkpt lat="50.41160740" lon="3.09078630"><ele>17.921753</ele><time>2009-09-13T07:10:47Z</time></trkpt>
<trkpt lat="50.41188860" lon="3.09065710"><ele>17.441162</ele><time>2009-09-13T07:10:54Z</time></trkpt>
<trkpt lat="50.41195810" lon="3.09048960"><ele>16.960449</ele><time>2009-09-13T07:10:56Z</time></trkpt>
<trkpt lat="50.41220670" lon="3.08988200"><ele>17.441162</ele><time>2009-09-13T07:11:03Z</time></trkpt>
<trkpt lat="50.41218280" lon="3.08994770"><ele>18.883057</ele><time>2009-09-13T07:11:08Z</time></trkpt>
<trkpt lat="50.41203790" lon="3.09029710"><ele>15.999023</ele><time>2009-09-13T07:11:16Z</time></trkpt>
<trkpt lat="50.41252610" lon="3.09213640"><ele>17.441162</ele><time>2009-09-13T07:11:25Z</time></trkpt>
<trkpt lat="50.41252610" lon="3.09213640"><ele>18.402344</ele><time>2009-09-13T07:11:27Z</time></trkpt>
<trkpt lat="50.41254020" lon="3.09212520"><ele>19.36377</ele><time>2009-09-13T07:11:30Z</time></trkpt>
<trkpt lat="50.41260430" lon="3.09207390"><ele>18.883057</ele><time>2009-09-13T07:11:32Z</time></trkpt>
<trkpt lat="50.41266280" lon="3.09200940"><ele>18.402344</ele><time>2009-09-13T07:11:34Z</time></trkpt>
<trkpt lat="50.41311610" lon="3.09143860"><ele>17.921753</ele><time>2009-09-13T07:11:45Z</time></trkpt>
<trkpt lat="50.41363540" lon="3.09083510"><ele>17.921753</ele><time>2009-09-13T07:11:57Z</time></trkpt>
<trkpt lat="50.41410140" lon="3.09006970"><ele>17.441162</ele><time>2009-09-13T07:12:09Z</time></trkpt>
<trkpt lat="50.41428310" lon="3.08968060"><ele>16.479736</ele><time>2009-09-13T07:12:14Z</time></trkpt>
<trkpt lat="50.41437390" lon="3.08939520"><ele>16.960449</ele><time>2009-09-13T07:12:17Z</time></trkpt>
<trkpt lat="50.41460220" lon="3.08852280"><ele>16.479736</ele><time>2009-09-13T07:12:26Z</time></trkpt>
<trkpt lat="50.41472370" lon="3.08807940"><ele>19.36377</ele><time>2009-09-13T07:12:32Z</time></trkpt>
<trkpt lat="50.41493580" lon="3.08819360"><ele>19.84436</ele><time>2009-09-13T07:12:38Z</time></trkpt>
<trkpt lat="50.41509860" lon="3.08848970"><ele>18.883057</ele><time>2009-09-13T07:12:43Z</time></trkpt>
<trkpt lat="50.41574390" lon="3.08950320"><ele>17.921753</ele><time>2009-09-13T07:12:58Z</time></trkpt>
<trkpt lat="50.41608870" lon="3.08989900"><ele>17.441162</ele><time>2009-09-13T07:13:05Z</time></trkpt>
<trkpt lat="50.41627490" lon="3.08976770"><ele>16.479736</ele><time>2009-09-13T07:13:09Z</time></trkpt>
<trkpt lat="50.41682240" lon="3.08908770"><ele>17.921753</ele><time>2009-09-13T07:13:20Z</time></trkpt>
<trkpt lat="50.41716530" lon="3.08909450"><ele>18.883057</ele><time>2009-09-13T07:13:27Z</time></trkpt>
<trkpt lat="50.41731370" lon="3.08918050"><ele>20.805664</ele><time>2009-09-13T07:13:31Z</time></trkpt>
<trkpt lat="50.41731450" lon="3.08878710"><ele>18.883057</ele><time>2009-09-13T07:13:38Z</time></trkpt>
<trkpt lat="50.41727470" lon="3.08756480"><ele>18.883057</ele><time>2009-09-13T07:13:50Z</time></trkpt>
<trkpt lat="50.41743210" lon="3.08659150"><ele>18.883057</ele><time>2009-09-13T07:14:00Z</time></trkpt>
<trkpt lat="50.41745940" lon="3.08646010"><ele>19.36377</ele><time>2009-09-13T07:14:02Z</time></trkpt>
<trkpt lat="50.41767980" lon="3.08657310"><ele>19.36377</ele><time>2009-09-13T07:14:06Z</time></trkpt>
<trkpt lat="50.41817370" lon="3.08697900"><ele>20.324951</ele><time>2009-09-13T07:14:15Z</time></trkpt>
<trkpt lat="50.41827750" lon="3.08705170"><ele>20.805664</ele><time>2009-09-13T07:14:17Z</time></trkpt>
<trkpt lat="50.41897530" lon="3.08754130"><ele>19.84436</ele><time>2009-09-13T07:14:29Z</time></trkpt>
<trkpt lat="50.41933580" lon="3.08779430"><ele>20.324951</ele><time>2009-09-13T07:14:35Z</time></trkpt>
<trkpt lat="50.41946190" lon="3.08788270"><ele>21.766968</ele><time>2009-09-13T07:14:38Z</time></trkpt>
<trkpt lat="50.41963240" lon="3.08795900"><ele>21.766968</ele><time>2009-09-13T07:14:48Z</time></trkpt>
<trkpt lat="50.41982930" lon="3.08805620"><ele>21.286377</ele><time>2009-09-13T07:14:52Z</time></trkpt>
<trkpt lat="50.42058890" lon="3.08849320"><ele>22.247559</ele><time>2009-09-13T07:15:08Z</time></trkpt>
<trkpt lat="50.42127100" lon="3.08902440"><ele>21.286377</ele><time>2009-09-13T07:15:22Z</time></trkpt>
<trkpt lat="50.42203360" lon="3.08965040"><ele>19.36377</ele><time>2009-09-13T07:15:37Z</time></trkpt>
<trkpt lat="50.42215220" lon="3.08974780"><ele>20.324951</ele><time>2009-09-13T07:15:40Z</time></trkpt>
<trkpt lat="50.42227860" lon="3.08984900"><ele>19.84436</ele><time>2009-09-13T07:15:46Z</time></trkpt>
<trkpt lat="50.42246680" lon="3.08999960"><ele>19.36377</ele><time>2009-09-13T07:15:51Z</time></trkpt>
<trkpt lat="50.42281500" lon="3.09020770"><ele>18.883057</ele><time>2009-09-13T07:15:58Z</time></trkpt>
<trkpt lat="50.42303810" lon="3.09026490"><ele>18.883057</ele><time>2009-09-13T07:16:03Z</time></trkpt>
<trkpt lat="50.42401770" lon="3.09032080"><ele>18.402344</ele><time>2009-09-13T07:16:19Z</time></trkpt>
<trkpt lat="50.42472340" lon="3.09035850"><ele>18.402344</ele><time>2009-09-13T07:16:30Z</time></trkpt>
<trkpt lat="50.42573240" lon="3.09041230"><ele>18.402344</ele><time>2009-09-13T07:16:45Z</time></trkpt>
<trkpt lat="50.42667910" lon="3.09053330"><ele>19.36377</ele><time>2009-09-13T07:17:00Z</time></trkpt>
<trkpt lat="50.42686290" lon="3.09062520"><ele>18.883057</ele><time>2009-09-13T07:17:03Z</time></trkpt>
<trkpt lat="50.42762700" lon="3.09123680"><ele>18.883057</ele><time>2009-09-13T07:17:16Z</time></trkpt>
<trkpt lat="50.42847710" lon="3.09213780"><ele>18.402344</ele><time>2009-09-13T07:17:31Z</time></trkpt>
<trkpt lat="50.42919710" lon="3.09270620"><ele>18.883057</ele><time>2009-09-13T07:17:44Z</time></trkpt>
<trkpt lat="50.43009950" lon="3.09315870"><ele>18.883057</ele><time>2009-09-13T07:17:59Z</time></trkpt>
<trkpt lat="50.43094650" lon="3.09362540"><ele>19.84436</ele><time>2009-09-13T07:18:14Z</time></trkpt>
<trkpt lat="50.43158300" lon="3.09396050"><ele>19.84436</ele><time>2009-09-13T07:18:25Z</time></trkpt>
<trkpt lat="50.43248590" lon="3.09438840"><ele>18.883057</ele><time>2009-09-13T07:18:39Z</time></trkpt>
<trkpt lat="50.43312870" lon="3.09469140"><ele>22.247559</ele><time>2009-09-13T07:18:50Z</time></trkpt>
<trkpt lat="50.43339610" lon="3.09485490"><ele>21.766968</ele><time>2009-09-13T07:19:00Z</time></trkpt>
<trkpt lat="50.43381450" lon="3.09518970"><ele>21.766968</ele><time>2009-09-13T07:19:11Z</time></trkpt>
<trkpt lat="50.43446620" lon="3.09563540"><ele>22.728271</ele><time>2009-09-13T07:19:24Z</time></trkpt>
<trkpt lat="50.43521140" lon="3.09586620"><ele>24.651001</ele><time>2009-09-13T07:19:38Z</time></trkpt>
<trkpt lat="50.43531160" lon="3.09586100"><ele>24.651001</ele><time>2009-09-13T07:19:40Z</time></trkpt>
<trkpt lat="50.43545690" lon="3.09585340"><ele>25.612305</ele><time>2009-09-13T07:19:43Z</time></trkpt>
<trkpt lat="50.43565610" lon="3.09582920"><ele>25.612305</ele><time>2009-09-13T07:19:47Z</time></trkpt>
<trkpt lat="50.43589450" lon="3.09575860"><ele>25.612305</ele><time>2009-09-13T07:19:51Z</time></trkpt>
<trkpt lat="50.43633770" lon="3.09556700"><ele>28.015503</ele><time>2009-09-13T07:20:02Z</time></trkpt>
<trkpt lat="50.43668780" lon="3.09542200"><ele>28.015503</ele><time>2009-09-13T07:20:12Z</time></trkpt>
<trkpt lat="50.43694040" lon="3.09532800"><ele>28.496216</ele><time>2009-09-13T07:20:18Z</time></trkpt>
<trkpt lat="50.43760560" lon="3.09507380"><ele>29.93811</ele><time>2009-09-13T07:20:31Z</time></trkpt>
<trkpt lat="50.43820820" lon="3.09480220"><ele>30.899536</ele><time>2009-09-13T07:20:43Z</time></trkpt>
<trkpt lat="50.43830420" lon="3.09471940"><ele>30.899536</ele><time>2009-09-13T07:20:45Z</time></trkpt>
<trkpt lat="50.43862300" lon="3.09444420"><ele>31.860718</ele><time>2009-09-13T07:20:52Z</time></trkpt>
<trkpt lat="50.43921470" lon="3.09356950"><ele>34.26416</ele><time>2009-09-13T07:21:08Z</time></trkpt>
<trkpt lat="50.43961420" lon="3.09249090"><ele>36.186768</ele><time>2009-09-13T07:21:24Z</time></trkpt>
<trkpt lat="50.44004030" lon="3.09120030"><ele>38.109375</ele><time>2009-09-13T07:21:42Z</time></trkpt>
<trkpt lat="50.44006390" lon="3.09112900"><ele>38.109375</ele><time>2009-09-13T07:21:43Z</time></trkpt>
<trkpt lat="50.44026400" lon="3.09059780"><ele>38.590088</ele><time>2009-09-13T07:21:50Z</time></trkpt>
<trkpt lat="50.44037630" lon="3.09032720"><ele>39.070679</ele><time>2009-09-13T07:21:54Z</time></trkpt>
<trkpt lat="50.44066720" lon="3.08980810"><ele>39.55127</ele><time>2009-09-13T07:22:02Z</time></trkpt>
<trkpt lat="50.44141120" lon="3.08909050"><ele>40.512817</ele><time>2009-09-13T07:22:18Z</time></trkpt>
<trkpt lat="50.44199270" lon="3.08885300"><ele>43.396606</ele><time>2009-09-13T07:22:31Z</time></trkpt>
<trkpt lat="50.44222660" lon="3.08879740"><ele>42.435425</ele><time>2009-09-13T07:22:37Z</time></trkpt>
<trkpt lat="50.44263320" lon="3.08863780"><ele>43.877319</ele><time>2009-09-13T07:22:46Z</time></trkpt>
<trkpt lat="50.44328990" lon="3.08816530"><ele>45.799927</ele><time>2009-09-13T07:23:01Z</time></trkpt>
<trkpt lat="50.44395030" lon="3.08711740"><ele>46.76123</ele><time>2009-09-13T07:23:19Z</time></trkpt>
<trkpt lat="50.44441020" lon="3.08594020"><ele>48.203369</ele><time>2009-09-13T07:23:35Z</time></trkpt>
<trkpt lat="50.44486470" lon="3.08477680"><ele>50.606567</ele><time>2009-09-13T07:23:51Z</time></trkpt>
<trkpt lat="50.44537180" lon="3.08370140"><ele>51.567871</ele><time>2009-09-13T07:24:07Z</time></trkpt>
<trkpt lat="50.44557910" lon="3.08328000"><ele>53.490479</ele><time>2009-09-13T07:24:15Z</time></trkpt>
<trkpt lat="50.44573880" lon="3.08345940"><ele>53.009766</ele><time>2009-09-13T07:24:24Z</time></trkpt>
<trkpt lat="50.44592890" lon="3.08372790"><ele>53.490479</ele><time>2009-09-13T07:24:31Z</time></trkpt>
<trkpt lat="50.44599160" lon="3.08391420"><ele>53.971191</ele><time>2009-09-13T07:24:34Z</time></trkpt>
<trkpt lat="50.44605990" lon="3.08488090"><ele>54.932373</ele><time>2009-09-13T07:24:47Z</time></trkpt>
<trkpt lat="50.44606020" lon="3.08510250"><ele>55.413086</ele><time>2009-09-13T07:24:50Z</time></trkpt>
<trkpt lat="50.44589350" lon="3.08639500"><ele>54.451782</ele><time>2009-09-13T07:25:06Z</time></trkpt>
<trkpt lat="50.44564500" lon="3.08750090"><ele>53.009766</ele><time>2009-09-13T07:25:19Z</time></trkpt>
<trkpt lat="50.44548510" lon="3.08794580"><ele>53.009766</ele><time>2009-09-13T07:25:25Z</time></trkpt>
<trkpt lat="50.44544630" lon="3.08908440"><ele>52.048584</ele><time>2009-09-13T07:25:39Z</time></trkpt>
<trkpt lat="50.44542070" lon="3.08947560"><ele>52.048584</ele><time>2009-09-13T07:25:46Z</time></trkpt>
<trkpt lat="50.44505580" lon="3.08961470"><ele>50.125977</ele><time>2009-09-13T07:25:53Z</time></trkpt>
<trkpt lat="50.44494110" lon="3.08987970"><ele>50.125977</ele><time>2009-09-13T07:25:57Z</time></trkpt>
<trkpt lat="50.44472740" lon="3.09097070"><ele>49.164551</ele><time>2009-09-13T07:26:11Z</time></trkpt>
<trkpt lat="50.44445810" lon="3.09229960"><ele>48.68396</ele><time>2009-09-13T07:26:25Z</time></trkpt>
<trkpt lat="50.44429800" lon="3.09315350"><ele>50.606567</ele><time>2009-09-13T07:26:35Z</time></trkpt>
<trkpt lat="50.44407420" lon="3.09421260"><ele>51.087158</ele><time>2009-09-13T07:26:50Z</time></trkpt>
<trkpt lat="50.44395560" lon="3.09457710"><ele>51.567871</ele><time>2009-09-13T07:26:56Z</time></trkpt>
<trkpt lat="50.44372250" lon="3.09510990"><ele>51.087158</ele><time>2009-09-13T07:27:05Z</time></trkpt>
<trkpt lat="50.44361570" lon="3.09532240"><ele>50.606567</ele><time>2009-09-13T07:27:09Z</time></trkpt>
<trkpt lat="50.44330500" lon="3.09577980"><ele>50.125977</ele><time>2009-09-13T07:27:17Z</time></trkpt>
<trkpt lat="50.44286120" lon="3.09588300"><ele>48.68396</ele><time>2009-09-13T07:27:25Z</time></trkpt>
<trkpt lat="50.44243810" lon="3.09578420"><ele>49.164551</ele><time>2009-09-13T07:27:35Z</time></trkpt>
<trkpt lat="50.44237310" lon="3.09599730"><ele>48.68396</ele><time>2009-09-13T07:27:37Z</time></trkpt>
<trkpt lat="50.44202770" lon="3.09716440"><ele>48.203369</ele><time>2009-09-13T07:27:52Z</time></trkpt>
<trkpt lat="50.44193020" lon="3.09858690"><ele>47.241821</ele><time>2009-09-13T07:28:08Z</time></trkpt>
<trkpt lat="50.44184010" lon="3.09981610"><ele>47.241821</ele><time>2009-09-13T07:28:22Z</time></trkpt>
<trkpt lat="50.44152450" lon="3.10024390"><ele>47.241821</ele><time>2009-09-13T07:28:31Z</time></trkpt>
<trkpt lat="50.44151540" lon="3.10051140"><ele>45.799927</ele><time>2009-09-13T07:28:34Z</time></trkpt>
<trkpt lat="50.44151540" lon="3.10074690"><ele>46.76123</ele><time>2009-09-13T07:28:37Z</time></trkpt>
<trkpt lat="50.44150910" lon="3.10133820"><ele>47.241821</ele><time>2009-09-13T07:28:44Z</time></trkpt>
<trkpt lat="50.44143920" lon="3.10177560"><ele>47.241821</ele><time>2009-09-13T07:28:49Z</time></trkpt>
<trkpt lat="50.44124260" lon="3.10325420"><ele>46.28064</ele><time>2009-09-13T07:29:03Z</time></trkpt>
<trkpt lat="50.44125650" lon="3.10395280"><ele>45.799927</ele><time>2009-09-13T07:29:09Z</time></trkpt>
<trkpt lat="50.44124190" lon="3.10419970"><ele>45.319214</ele><time>2009-09-13T07:29:11Z</time></trkpt>
<trkpt lat="50.44109220" lon="3.10464770"><ele>45.799927</ele><time>2009-09-13T07:29:15Z</time></trkpt>
<trkpt lat="50.44074830" lon="3.10527380"><ele>44.838623</ele><time>2009-09-13T07:29:21Z</time></trkpt>
<trkpt lat="50.44063950" lon="3.10590090"><ele>45.799927</ele><time>2009-09-13T07:29:26Z</time></trkpt>
<trkpt lat="50.44079620" lon="3.10741870"><ele>46.76123</ele><time>2009-09-13T07:29:38Z</time></trkpt>
<trkpt lat="50.44080320" lon="3.10752260"><ele>46.76123</ele><time>2009-09-13T07:29:39Z</time></trkpt>
<trkpt lat="50.44073490" lon="3.10879420"><ele>48.203369</ele><time>2009-09-13T07:29:54Z</time></trkpt>
<trkpt lat="50.44068510" lon="3.10921550"><ele>48.203369</ele><time>2009-09-13T07:30:00Z</time></trkpt>
<trkpt lat="50.44069100" lon="3.10940990"><ele>48.203369</ele><time>2009-09-13T07:30:03Z</time></trkpt>
<trkpt lat="50.44081820" lon="3.11020880"><ele>47.722534</ele><time>2009-09-13T07:30:17Z</time></trkpt>
<trkpt lat="50.44102410" lon="3.11107830"><ele>45.319214</ele><time>2009-09-13T07:30:30Z</time></trkpt>
<trkpt lat="50.44126890" lon="3.11224320"><ele>43.396606</ele><time>2009-09-13T07:30:43Z</time></trkpt>
<trkpt lat="50.44129550" lon="3.11328950"><ele>42.916016</ele><time>2009-09-13T07:30:55Z</time></trkpt>
<trkpt lat="50.44128230" lon="3.11403050"><ele>42.435425</ele><time>2009-09-13T07:31:04Z</time></trkpt>
<trkpt lat="50.44132470" lon="3.11459210"><ele>41.473999</ele><time>2009-09-13T07:31:11Z</time></trkpt>
<trkpt lat="50.44157520" lon="3.11589540"><ele>38.590088</ele><time>2009-09-13T07:31:26Z</time></trkpt>
<trkpt lat="50.44159000" lon="3.11600140"><ele>38.109375</ele><time>2009-09-13T07:31:27Z</time></trkpt>
<trkpt lat="50.44183710" lon="3.11632110"><ele>36.186768</ele><time>2009-09-13T07:31:32Z</time></trkpt>
<trkpt lat="50.44192300" lon="3.11675160"><ele>37.628662</ele><time>2009-09-13T07:31:38Z</time></trkpt>
<trkpt lat="50.44163720" lon="3.11805550"><ele>36.186768</ele><time>2009-09-13T07:31:50Z</time></trkpt>
<trkpt lat="50.44155730" lon="3.11845980"><ele>37.628662</ele><time>2009-09-13T07:31:54Z</time></trkpt>
<trkpt lat="50.44150630" lon="3.11872290"><ele>37.148071</ele><time>2009-09-13T07:31:57Z</time></trkpt>
<trkpt lat="50.44149400" lon="3.11878680"><ele>37.148071</ele><time>2009-09-13T07:31:59Z</time></trkpt>
<trkpt lat="50.44137090" lon="3.11933060"><ele>36.186768</ele><time>2009-09-13T07:32:04Z</time></trkpt>
<trkpt lat="50.44126860" lon="3.11978240"><ele>37.148071</ele><time>2009-09-13T07:32:09Z</time></trkpt>
<trkpt lat="50.44103110" lon="3.11981360"><ele>38.109375</ele><time>2009-09-13T07:32:16Z</time></trkpt>
<trkpt lat="50.44033860" lon="3.11938000"><ele>40.512817</ele><time>2009-09-13T07:32:33Z</time></trkpt>
<trkpt lat="50.43949960" lon="3.11884610"><ele>42.435425</ele><time>2009-09-13T07:32:52Z</time></trkpt>
<trkpt lat="50.43872900" lon="3.11836520"><ele>44.838623</ele><time>2009-09-13T07:33:09Z</time></trkpt>
<trkpt lat="50.43850250" lon="3.11822470"><ele>45.319214</ele><time>2009-09-13T07:33:14Z</time></trkpt>
<trkpt lat="50.43775760" lon="3.11776330"><ele>46.28064</ele><time>2009-09-13T07:33:30Z</time></trkpt>
<trkpt lat="50.43745330" lon="3.11757500"><ele>46.76123</ele><time>2009-09-13T07:33:37Z</time></trkpt>
<trkpt lat="50.43730720" lon="3.11781000"><ele>46.76123</ele><time>2009-09-13T07:33:42Z</time></trkpt>
<trkpt lat="50.43708800" lon="3.11898700"><ele>47.241821</ele><time>2009-09-13T07:33:57Z</time></trkpt>
<trkpt lat="50.43676290" lon="3.12039740"><ele>46.28064</ele><time>2009-09-13T07:34:14Z</time></trkpt>
<trkpt lat="50.43637420" lon="3.12151630"><ele>46.76123</ele><time>2009-09-13T07:34:28Z</time></trkpt>
<trkpt lat="50.43597430" lon="3.12265740"><ele>45.799927</ele><time>2009-09-13T07:34:42Z</time></trkpt>
<trkpt lat="50.43552000" lon="3.12395380"><ele>46.28064</ele><time>2009-09-13T07:34:59Z</time></trkpt>
<trkpt lat="50.43510630" lon="3.12512590"><ele>45.319214</ele><time>2009-09-13T07:35:15Z</time></trkpt>
<trkpt lat="50.43468140" lon="3.12631490"><ele>44.838623</ele><time>2009-09-13T07:35:30Z</time></trkpt>
<trkpt lat="50.43435740" lon="3.12740280"><ele>44.838623</ele><time>2009-09-13T07:35:42Z</time></trkpt>
<trkpt lat="50.43417570" lon="3.12737910"><ele>44.838623</ele><time>2009-09-13T07:35:48Z</time></trkpt>
<trkpt lat="50.43402140" lon="3.12721960"><ele>45.319214</ele><time>2009-09-13T07:35:58Z</time></trkpt>
<trkpt lat="50.43386380" lon="3.12709090"><ele>45.319214</ele><time>2009-09-13T07:36:08Z</time></trkpt>
<trkpt lat="50.43380950" lon="3.12722220"><ele>44.838623</ele><time>2009-09-13T07:36:12Z</time></trkpt>
<trkpt lat="50.43378360" lon="3.12826090"><ele>44.358032</ele><time>2009-09-13T07:36:26Z</time></trkpt>
<trkpt lat="50.43365510" lon="3.12926370"><ele>44.358032</ele><time>2009-09-13T07:36:39Z</time></trkpt>
<trkpt lat="50.43342170" lon="3.13069050"><ele>43.396606</ele><time>2009-09-13T07:36:56Z</time></trkpt>
<trkpt lat="50.43308510" lon="3.13230480"><ele>44.358032</ele><time>2009-09-13T07:37:15Z</time></trkpt>
<trkpt lat="50.43299670" lon="3.13269020"><ele>44.358032</ele><time>2009-09-13T07:37:20Z</time></trkpt>
<trkpt lat="50.43311990" lon="3.13287600"><ele>41.954712</ele><time>2009-09-13T07:37:25Z</time></trkpt>
<trkpt lat="50.43317450" lon="3.13285550"><ele>41.954712</ele><time>2009-09-13T07:37:26Z</time></trkpt>
<trkpt lat="50.43344440" lon="3.13276840"><ele>42.916016</ele><time>2009-09-13T07:37:31Z</time></trkpt>
<trkpt lat="50.43352520" lon="3.13275680"><ele>43.877319</ele><time>2009-09-13T07:37:33Z</time></trkpt>
<trkpt lat="50.43354960" lon="3.13305270"><ele>44.838623</ele><time>2009-09-13T07:37:36Z</time></trkpt>
<trkpt lat="50.43357540" lon="3.13426850"><ele>43.877319</ele><time>2009-09-13T07:37:50Z</time></trkpt>
<trkpt lat="50.43359950" lon="3.13557890"><ele>43.877319</ele><time>2009-09-13T07:38:04Z</time></trkpt>
<trkpt lat="50.43357720" lon="3.13720500"><ele>43.396606</ele><time>2009-09-13T07:38:19Z</time></trkpt>
<trkpt lat="50.43330460" lon="3.13850100"><ele>42.916016</ele><time>2009-09-13T07:38:31Z</time></trkpt>
<trkpt lat="50.43307760" lon="3.13955500"><ele>42.435425</ele><time>2009-09-13T07:38:41Z</time></trkpt>
<trkpt lat="50.43325150" lon="3.14034880"><ele>40.993408</ele><time>2009-09-13T07:38:49Z</time></trkpt>
<trkpt lat="50.43365670" lon="3.14135720"><ele>42.435425</ele><time>2009-09-13T07:39:01Z</time></trkpt>
<trkpt lat="50.43389300" lon="3.14226220"><ele>42.435425</ele><time>2009-09-13T07:39:13Z</time></trkpt>
<trkpt lat="50.43423610" lon="3.14350680"><ele>41.954712</ele><time>2009-09-13T07:39:30Z</time></trkpt>
<trkpt lat="50.43428500" lon="3.14370240"><ele>41.473999</ele><time>2009-09-13T07:39:33Z</time></trkpt>
<trkpt lat="50.43430570" lon="3.14378500"><ele>40.993408</ele><time>2009-09-13T07:39:37Z</time></trkpt>
<trkpt lat="50.43450000" lon="3.14398900"><ele>40.512817</ele><time>2009-09-13T07:39:40Z</time></trkpt>
<trkpt lat="50.43483430" lon="3.14446650"><ele>39.55127</ele><time>2009-09-13T07:39:50Z</time></trkpt>
<trkpt lat="50.43490890" lon="3.14457320"><ele>40.032104</ele><time>2009-09-13T07:39:52Z</time></trkpt>
<trkpt lat="50.43519030" lon="3.14463470"><ele>38.590088</ele><time>2009-09-13T07:39:58Z</time></trkpt>
<trkpt lat="50.43549510" lon="3.14456570"><ele>37.628662</ele><time>2009-09-13T07:40:04Z</time></trkpt>
<trkpt lat="50.43618060" lon="3.14440000"><ele>36.186768</ele><time>2009-09-13T07:40:17Z</time></trkpt>
<trkpt lat="50.43668420" lon="3.14438460"><ele>36.186768</ele><time>2009-09-13T07:40:27Z</time></trkpt>
<trkpt lat="50.43675980" lon="3.14440990"><ele>36.66748</ele><time>2009-09-13T07:40:34Z</time></trkpt>
<trkpt lat="50.43683990" lon="3.14443650"><ele>35.706055</ele><time>2009-09-13T07:40:36Z</time></trkpt>
<trkpt lat="50.43691000" lon="3.14445020"><ele>34.744873</ele><time>2009-09-13T07:40:38Z</time></trkpt>
<trkpt lat="50.43757290" lon="3.14425470"><ele>30.899536</ele><time>2009-09-13T07:40:47Z</time></trkpt>
<trkpt lat="50.43824210" lon="3.14411160"><ele>29.93811</ele><time>2009-09-13T07:40:53Z</time></trkpt>
<trkpt lat="50.43873110" lon="3.14404190"><ele>31.860718</ele><time>2009-09-13T07:40:58Z</time></trkpt>
<trkpt lat="50.43892930" lon="3.14432860"><ele>34.26416</ele><time>2009-09-13T07:41:02Z</time></trkpt>
<trkpt lat="50.43892840" lon="3.14448770"><ele>33.302856</ele><time>2009-09-13T07:41:04Z</time></trkpt>
<trkpt lat="50.43893930" lon="3.14539420"><ele>33.783447</ele><time>2009-09-13T07:41:13Z</time></trkpt>
<trkpt lat="50.43894820" lon="3.14555950"><ele>33.783447</ele><time>2009-09-13T07:41:15Z</time></trkpt>
<trkpt lat="50.43893650" lon="3.14608360"><ele>34.26416</ele><time>2009-09-13T07:41:23Z</time></trkpt>
<trkpt lat="50.43896710" lon="3.14621220"><ele>35.706055</ele><time>2009-09-13T07:41:26Z</time></trkpt>
<trkpt lat="50.43896210" lon="3.14648720"><ele>34.26416</ele><time>2009-09-13T07:41:31Z</time></trkpt>
<trkpt lat="50.43902110" lon="3.14701270"><ele>34.744873</ele><time>2009-09-13T07:41:37Z</time></trkpt>
<trkpt lat="50.43911780" lon="3.14785480"><ele>35.706055</ele><time>2009-09-13T07:41:49Z</time></trkpt>
<trkpt lat="50.43917660" lon="3.14842420"><ele>36.186768</ele><time>2009-09-13T07:41:58Z</time></trkpt>
<trkpt lat="50.43930720" lon="3.14915100"><ele>36.186768</ele><time>2009-09-13T07:42:07Z</time></trkpt>
<trkpt lat="50.43931370" lon="3.14922880"><ele>36.66748</ele><time>2009-09-13T07:42:08Z</time></trkpt>
<trkpt lat="50.43935450" lon="3.14971910"><ele>36.66748</ele><time>2009-09-13T07:42:15Z</time></trkpt>
<trkpt lat="50.43935020" lon="3.15005650"><ele>36.66748</ele><time>2009-09-13T07:42:20Z</time></trkpt>
<trkpt lat="50.43930920" lon="3.15026720"><ele>36.66748</ele><time>2009-09-13T07:42:23Z</time></trkpt>
<trkpt lat="50.43926510" lon="3.15048790"><ele>37.148071</ele><time>2009-09-13T07:42:26Z</time></trkpt>
<trkpt lat="50.43922490" lon="3.15068880"><ele>37.148071</ele><time>2009-09-13T07:42:29Z</time></trkpt>
<trkpt lat="50.43915950" lon="3.15101590"><ele>36.66748</ele><time>2009-09-13T07:42:33Z</time></trkpt>
<trkpt lat="50.43913040" lon="3.15116150"><ele>37.148071</ele><time>2009-09-13T07:42:35Z</time></trkpt>
<trkpt lat="50.43905000" lon="3.15156320"><ele>37.628662</ele><time>2009-09-13T07:42:40Z</time></trkpt>
<trkpt lat="50.43900790" lon="3.15177350"><ele>38.109375</ele><time>2009-09-13T07:42:43Z</time></trkpt>
<trkpt lat="50.43889120" lon="3.15212330"><ele>38.590088</ele><time>2009-09-13T07:42:50Z</time></trkpt>
<trkpt lat="50.43887620" lon="3.15215350"><ele>38.109375</ele><time>2009-09-13T07:42:54Z</time></trkpt>
<trkpt lat="50.43845760" lon="3.15233950"><ele>37.628662</ele><time>2009-09-13T07:43:01Z</time></trkpt>
<trkpt lat="50.43773960" lon="3.15265870"><ele>37.628662</ele><time>2009-09-13T07:43:16Z</time></trkpt>
<trkpt lat="50.43758770" lon="3.15272950"><ele>38.109375</ele><time>2009-09-13T07:43:19Z</time></trkpt>
<trkpt lat="50.43740000" lon="3.15281790"><ele>38.109375</ele><time>2009-09-13T07:43:23Z</time></trkpt>
<trkpt lat="50.43726510" lon="3.15288150"><ele>38.109375</ele><time>2009-09-13T07:43:26Z</time></trkpt>
<trkpt lat="50.43717920" lon="3.15292210"><ele>38.590088</ele><time>2009-09-13T07:43:28Z</time></trkpt>
<trkpt lat="50.43664790" lon="3.15317330"><ele>38.109375</ele><time>2009-09-13T07:43:39Z</time></trkpt>
<trkpt lat="50.43649350" lon="3.15324630"><ele>38.590088</ele><time>2009-09-13T07:43:42Z</time></trkpt>
<trkpt lat="50.43631720" lon="3.15332980"><ele>38.109375</ele><time>2009-09-13T07:43:46Z</time></trkpt>
<trkpt lat="50.43608090" lon="3.15342430"><ele>40.032104</ele><time>2009-09-13T07:43:51Z</time></trkpt>
<trkpt lat="50.43602230" lon="3.15344100"><ele>38.590088</ele><time>2009-09-13T07:44:00Z</time></trkpt>
<trkpt lat="50.43602230" lon="3.15344100"><ele>38.590088</ele><time>2009-09-13T07:44:02Z</time></trkpt>
<trkpt lat="50.43522080" lon="3.15302810"><ele>38.590088</ele><time>2009-09-13T07:44:09Z</time></trkpt>
<trkpt lat="50.43498580" lon="3.15292160"><ele>38.590088</ele><time>2009-09-13T07:44:13Z</time></trkpt>
<trkpt lat="50.43437820" lon="3.15264490"><ele>39.55127</ele><time>2009-09-13T07:44:23Z</time></trkpt>
<trkpt lat="50.43408510" lon="3.15246500"><ele>39.55127</ele><time>2009-09-13T07:44:29Z</time></trkpt>
<trkpt lat="50.43383540" lon="3.15235610"><ele>39.070679</ele><time>2009-09-13T07:44:34Z</time></trkpt>
<trkpt lat="50.43375740" lon="3.15231710"><ele>40.032104</ele><time>2009-09-13T07:44:36Z</time></trkpt>
<trkpt lat="50.43330390" lon="3.15209080"><ele>40.032104</ele><time>2009-09-13T07:44:46Z</time></trkpt>
<trkpt lat="50.43305350" lon="3.15140280"><ele>39.55127</ele><time>2009-09-13T07:44:47Z</time></trkpt>
<trkpt lat="50.43293270" lon="3.15149350"><ele>39.55127</ele><time>2009-09-13T07:44:50Z</time></trkpt>
<trkpt lat="50.43269630" lon="3.15208910"><ele>40.032104</ele><time>2009-09-13T07:44:53Z</time></trkpt>
<trkpt lat="50.43243420" lon="3.15159570"><ele>38.590088</ele><time>2009-09-13T07:45:05Z</time></trkpt>
<trkpt lat="50.43195130" lon="3.15136360"><ele>38.109375</ele><time>2009-09-13T07:45:14Z</time></trkpt>
<trkpt lat="50.43154180" lon="3.15115840"><ele>36.66748</ele><time>2009-09-13T07:45:22Z</time></trkpt>
<trkpt lat="50.43103710" lon="3.15095230"><ele>36.66748</ele><time>2009-09-13T07:45:34Z</time></trkpt>
<trkpt lat="50.43079030" lon="3.15080920"><ele>35.225464</ele><time>2009-09-13T07:45:41Z</time></trkpt>
<trkpt lat="50.43068040" lon="3.15051540"><ele>35.706055</ele><time>2009-09-13T07:45:46Z</time></trkpt>
<trkpt lat="50.43089410" lon="3.15021990"><ele>36.186768</ele><time>2009-09-13T07:45:55Z</time></trkpt>
<trkpt lat="50.43092860" lon="3.15019410"><ele>36.66748</ele><time>2009-09-13T07:45:56Z</time></trkpt>
<trkpt lat="50.43125820" lon="3.14980950"><ele>38.109375</ele><time>2009-09-13T07:46:06Z</time></trkpt>
<trkpt lat="50.43124800" lon="3.14929430"><ele>37.628662</ele><time>2009-09-13T07:46:16Z</time></trkpt>
<trkpt lat="50.43123990" lon="3.14914460"><ele>37.148071</ele><time>2009-09-13T07:46:18Z</time></trkpt>
<trkpt lat="50.43121580" lon="3.14822670"><ele>37.148071</ele><time>2009-09-13T07:46:27Z</time></trkpt>
<trkpt lat="50.43098430" lon="3.14842140"><ele>37.148071</ele><time>2009-09-13T07:46:31Z</time></trkpt>
<trkpt lat="50.43090920" lon="3.14846840"><ele>36.66748</ele><time>2009-09-13T07:46:33Z</time></trkpt>
<trkpt lat="50.43082690" lon="3.14849460"><ele>35.706055</ele><time>2009-09-13T07:46:35Z</time></trkpt>
<trkpt lat="50.43028110" lon="3.14864310"><ele>32.822266</ele><time>2009-09-13T07:46:43Z</time></trkpt>
<trkpt lat="50.43015960" lon="3.14874110"><ele>31.860718</ele><time>2009-09-13T07:46:45Z</time></trkpt>
<trkpt lat="50.42927430" lon="3.14921150"><ele>30.899536</ele><time>2009-09-13T07:46:56Z</time></trkpt>
<trkpt lat="50.42912440" lon="3.14929120"><ele>30.418823</ele><time>2009-09-13T07:46:58Z</time></trkpt>
<trkpt lat="50.42868140" lon="3.14942360"><ele>31.380127</ele><time>2009-09-13T07:47:03Z</time></trkpt>
<trkpt lat="50.42821880" lon="3.14977600"><ele>30.899536</ele><time>2009-09-13T07:47:16Z</time></trkpt>
<trkpt lat="50.42797980" lon="3.15006300"><ele>29.93811</ele><time>2009-09-13T07:47:23Z</time></trkpt>
<trkpt lat="50.42777070" lon="3.15005500"><ele>29.93811</ele><time>2009-09-13T07:47:29Z</time></trkpt>
<trkpt lat="50.42738460" lon="3.14961020"><ele>29.45752</ele><time>2009-09-13T07:47:42Z</time></trkpt>
<trkpt lat="50.42702590" lon="3.14919660"><ele>28.015503</ele><time>2009-09-13T07:47:52Z</time></trkpt>
<trkpt lat="50.42683760" lon="3.14897980"><ele>28.496216</ele><time>2009-09-13T07:47:57Z</time></trkpt>
<trkpt lat="50.42657450" lon="3.14867650"><ele>28.976929</ele><time>2009-09-13T07:48:06Z</time></trkpt>
<trkpt lat="50.42657450" lon="3.14867650"><ele>29.45752</ele><time>2009-09-13T07:48:27Z</time></trkpt>
<trkpt lat="50.42657450" lon="3.14867650"><ele>27.534912</ele><time>2009-09-13T07:56:28Z</time></trkpt>
<trkpt lat="50.42647270" lon="3.14881410"><ele>27.054321</ele><time>2009-09-13T07:56:33Z</time></trkpt>
<trkpt lat="50.42662050" lon="3.15010430"><ele>25.612305</ele><time>2009-09-13T07:56:48Z</time></trkpt>
<trkpt lat="50.42683100" lon="3.15177780"><ele>25.131714</ele><time>2009-09-13T07:57:05Z</time></trkpt>
<trkpt lat="50.42711570" lon="3.15343870"><ele>25.131714</ele><time>2009-09-13T07:57:22Z</time></trkpt>
<trkpt lat="50.42720310" lon="3.15391700"><ele>25.131714</ele><time>2009-09-13T07:57:27Z</time></trkpt>
<trkpt lat="50.42706300" lon="3.15543750"><ele>24.651001</ele><time>2009-09-13T07:57:42Z</time></trkpt>
<trkpt lat="50.42708190" lon="3.15573420"><ele>24.651001</ele><time>2009-09-13T07:57:45Z</time></trkpt>
<trkpt lat="50.42697940" lon="3.15592910"><ele>25.131714</ele><time>2009-09-13T07:57:50Z</time></trkpt>
<trkpt lat="50.42609750" lon="3.15660550"><ele>22.728271</ele><time>2009-09-13T07:58:06Z</time></trkpt>
<trkpt lat="50.42516240" lon="3.15731310"><ele>22.247559</ele><time>2009-09-13T07:58:21Z</time></trkpt>
<trkpt lat="50.42410990" lon="3.15810720"><ele>20.805664</ele><time>2009-09-13T07:58:37Z</time></trkpt>
<trkpt lat="50.42295980" lon="3.15897030"><ele>20.324951</ele><time>2009-09-13T07:58:54Z</time></trkpt>
<trkpt lat="50.42218510" lon="3.15953920"><ele>19.84436</ele><time>2009-09-13T07:59:05Z</time></trkpt>
<trkpt lat="50.42096180" lon="3.16044930"><ele>18.883057</ele><time>2009-09-13T07:59:21Z</time></trkpt>
<trkpt lat="50.41991830" lon="3.16124240"><ele>18.402344</ele><time>2009-09-13T07:59:34Z</time></trkpt>
<trkpt lat="50.41881650" lon="3.16205550"><ele>17.441162</ele><time>2009-09-13T07:59:48Z</time></trkpt>
<trkpt lat="50.41799640" lon="3.16265900"><ele>18.883057</ele><time>2009-09-13T08:00:00Z</time></trkpt>
<trkpt lat="50.41737460" lon="3.16312760"><ele>19.84436</ele><time>2009-09-13T08:00:13Z</time></trkpt>
<trkpt lat="50.41709570" lon="3.16335060"><ele>19.84436</ele><time>2009-09-13T08:00:21Z</time></trkpt>
<trkpt lat="50.41691200" lon="3.16349770"><ele>20.324951</ele><time>2009-09-13T08:00:26Z</time></trkpt>
<trkpt lat="50.41677370" lon="3.16360840"><ele>20.805664</ele><time>2009-09-13T08:00:30Z</time></trkpt>
<trkpt lat="50.41662300" lon="3.16345620"><ele>20.805664</ele><time>2009-09-13T08:00:36Z</time></trkpt>
<trkpt lat="50.41670960" lon="3.16253330"><ele>20.324951</ele><time>2009-09-13T08:00:50Z</time></trkpt>
<trkpt lat="50.41673040" lon="3.16139020"><ele>18.883057</ele><time>2009-09-13T08:01:03Z</time></trkpt>
<trkpt lat="50.41668000" lon="3.15994410"><ele>18.402344</ele><time>2009-09-13T08:01:19Z</time></trkpt>
<trkpt lat="50.41654630" lon="3.15900910"><ele>18.402344</ele><time>2009-09-13T08:01:29Z</time></trkpt>
<trkpt lat="50.41649080" lon="3.15865640"><ele>18.883057</ele><time>2009-09-13T08:01:33Z</time></trkpt>
<trkpt lat="50.41643880" lon="3.15836360"><ele>19.36377</ele><time>2009-09-13T08:01:38Z</time></trkpt>
<trkpt lat="50.41636600" lon="3.15795370"><ele>18.402344</ele><time>2009-09-13T08:01:43Z</time></trkpt>
<trkpt lat="50.41610960" lon="3.15644230"><ele>18.402344</ele><time>2009-09-13T08:01:58Z</time></trkpt>
<trkpt lat="50.41592700" lon="3.15524270"><ele>18.883057</ele><time>2009-09-13T08:02:12Z</time></trkpt>
<trkpt lat="50.41582650" lon="3.15463950"><ele>18.883057</ele><time>2009-09-13T08:02:19Z</time></trkpt>
<trkpt lat="50.41561710" lon="3.15333630"><ele>18.402344</ele><time>2009-09-13T08:02:34Z</time></trkpt>
<trkpt lat="50.41540310" lon="3.15203420"><ele>18.402344</ele><time>2009-09-13T08:02:48Z</time></trkpt>
<trkpt lat="50.41513000" lon="3.15050450"><ele>19.36377</ele><time>2009-09-13T08:03:06Z</time></trkpt>
<trkpt lat="50.41503880" lon="3.15009980"><ele>19.36377</ele><time>2009-09-13T08:03:12Z</time></trkpt>
<trkpt lat="50.41482870" lon="3.14932160"><ele>18.883057</ele><time>2009-09-13T08:03:23Z</time></trkpt>
<trkpt lat="50.41457460" lon="3.14924280"><ele>19.84436</ele><time>2009-09-13T08:03:29Z</time></trkpt>
<trkpt lat="50.41379660" lon="3.15000470"><ele>19.36377</ele><time>2009-09-13T08:03:44Z</time></trkpt>
<trkpt lat="50.41357350" lon="3.15011290"><ele>19.36377</ele><time>2009-09-13T08:03:48Z</time></trkpt>
<trkpt lat="50.41315250" lon="3.15009930"><ele>19.84436</ele><time>2009-09-13T08:03:55Z</time></trkpt>
<trkpt lat="50.41241990" lon="3.15003810"><ele>19.36377</ele><time>2009-09-13T08:04:07Z</time></trkpt>
<trkpt lat="50.41211890" lon="3.14975170"><ele>18.883057</ele><time>2009-09-13T08:04:13Z</time></trkpt>
<trkpt lat="50.41176060" lon="3.14867680"><ele>18.883057</ele><time>2009-09-13T08:04:26Z</time></trkpt>
<trkpt lat="50.41150280" lon="3.14790330"><ele>18.883057</ele><time>2009-09-13T08:04:36Z</time></trkpt>
<trkpt lat="50.41129420" lon="3.14723880"><ele>19.84436</ele><time>2009-09-13T08:04:44Z</time></trkpt>
<trkpt lat="50.41116080" lon="3.14656810"><ele>19.84436</ele><time>2009-09-13T08:04:52Z</time></trkpt>
<trkpt lat="50.41110090" lon="3.14596910"><ele>20.324951</ele><time>2009-09-13T08:05:00Z</time></trkpt>
<trkpt lat="50.41106300" lon="3.14568360"><ele>20.324951</ele><time>2009-09-13T08:05:04Z</time></trkpt>
<trkpt lat="50.41101160" lon="3.14533050"><ele>20.324951</ele><time>2009-09-13T08:05:09Z</time></trkpt>
<trkpt lat="50.41088940" lon="3.14428150"><ele>19.84436</ele><time>2009-09-13T08:05:25Z</time></trkpt>
<trkpt lat="50.41087370" lon="3.14414670"><ele>19.36377</ele><time>2009-09-13T08:05:27Z</time></trkpt>
<trkpt lat="50.41081040" lon="3.14360310"><ele>19.84436</ele><time>2009-09-13T08:05:35Z</time></trkpt>
<trkpt lat="50.41070990" lon="3.14259180"><ele>19.84436</ele><time>2009-09-13T08:05:49Z</time></trkpt>
<trkpt lat="50.41059760" lon="3.14133100"><ele>20.324951</ele><time>2009-09-13T08:06:07Z</time></trkpt>
<trkpt lat="50.41057420" lon="3.14106800"><ele>20.805664</ele><time>2009-09-13T08:06:11Z</time></trkpt>
<trkpt lat="50.41054760" lon="3.14069730"><ele>20.324951</ele><time>2009-09-13T08:06:17Z</time></trkpt>
<trkpt lat="50.41050910" lon="3.13960770"><ele>19.36377</ele><time>2009-09-13T08:06:32Z</time></trkpt>
<trkpt lat="50.41032390" lon="3.13896310"><ele>19.84436</ele><time>2009-09-13T08:06:41Z</time></trkpt>
<trkpt lat="50.41029450" lon="3.13863520"><ele>21.286377</ele><time>2009-09-13T08:06:52Z</time></trkpt>
<trkpt lat="50.41029450" lon="3.13863520"><ele>21.286377</ele><time>2009-09-13T08:06:53Z</time></trkpt>
<trkpt lat="50.41017190" lon="3.13831990"><ele>21.286377</ele><time>2009-09-13T08:06:57Z</time></trkpt>
<trkpt lat="50.41016580" lon="3.13764720"><ele>19.36377</ele><time>2009-09-13T08:07:07Z</time></trkpt>
<trkpt lat="50.41016580" lon="3.13706130"><ele>19.36377</ele><time>2009-09-13T08:07:14Z</time></trkpt>
<trkpt lat="50.41039150" lon="3.13548930"><ele>18.883057</ele><time>2009-09-13T08:07:33Z</time></trkpt>
<trkpt lat="50.41064670" lon="3.13418730"><ele>20.324951</ele><time>2009-09-13T08:07:50Z</time></trkpt>
<trkpt lat="50.41069550" lon="3.13354390"><ele>20.805664</ele><time>2009-09-13T08:08:00Z</time></trkpt>
<trkpt lat="50.41094870" lon="3.13349190"><ele>20.805664</ele><time>2009-09-13T08:08:05Z</time></trkpt>
<trkpt lat="50.41106040" lon="3.13360440"><ele>21.766968</ele><time>2009-09-13T08:08:09Z</time></trkpt>
<trkpt lat="50.41106040" lon="3.13360440"><ele>21.766968</ele><time>2009-09-13T08:08:12Z</time></trkpt>
<trkpt lat="50.41120250" lon="3.13315570"><ele>20.324951</ele><time>2009-09-13T08:08:20Z</time></trkpt>
<trkpt lat="50.41135540" lon="3.13298380"><ele>19.84436</ele><time>2009-09-13T08:08:24Z</time></trkpt>
<trkpt lat="50.41148280" lon="3.13298320"><ele>18.402344</ele><time>2009-09-13T08:08:26Z</time></trkpt>
<trkpt lat="50.41204810" lon="3.13315440"><ele>17.921753</ele><time>2009-09-13T08:08:35Z</time></trkpt>
<trkpt lat="50.41232290" lon="3.13324600"><ele>17.921753</ele><time>2009-09-13T08:08:40Z</time></trkpt>
<trkpt lat="50.41242200" lon="3.13327430"><ele>18.402344</ele><time>2009-09-13T08:08:42Z</time></trkpt>
<trkpt lat="50.41275560" lon="3.13336860"><ele>17.921753</ele><time>2009-09-13T08:08:48Z</time></trkpt>
<trkpt lat="50.41337300" lon="3.13356660"><ele>20.805664</ele><time>2009-09-13T08:09:01Z</time></trkpt>
<trkpt lat="50.41338440" lon="3.13357110"><ele>20.805664</ele><time>2009-09-13T08:09:02Z</time></trkpt>
<trkpt lat="50.41339590" lon="3.13337560"><ele>19.36377</ele><time>2009-09-13T08:09:07Z</time></trkpt>
<trkpt lat="50.41341810" lon="3.13313510"><ele>19.36377</ele><time>2009-09-13T08:09:10Z</time></trkpt>
<trkpt lat="50.41347780" lon="3.13278900"><ele>18.402344</ele><time>2009-09-13T08:09:14Z</time></trkpt>
<trkpt lat="50.41350740" lon="3.13261730"><ele>18.402344</ele><time>2009-09-13T08:09:16Z</time></trkpt>
<trkpt lat="50.41372260" lon="3.13203660"><ele>17.921753</ele><time>2009-09-13T08:09:23Z</time></trkpt>
<trkpt lat="50.41391490" lon="3.13151360"><ele>19.36377</ele><time>2009-09-13T08:09:30Z</time></trkpt>
<trkpt lat="50.41390970" lon="3.13130600"><ele>20.805664</ele><time>2009-09-13T08:09:34Z</time></trkpt>
<trkpt lat="50.41383280" lon="3.13120850"><ele>19.84436</ele><time>2009-09-13T08:09:36Z</time></trkpt>
<trkpt lat="50.41369880" lon="3.13107440"><ele>18.883057</ele><time>2009-09-13T08:09:39Z</time></trkpt>
<trkpt lat="50.41340210" lon="3.13077620"><ele>19.84436</ele><time>2009-09-13T08:09:45Z</time></trkpt>
<trkpt lat="50.41328960" lon="3.13060750"><ele>19.84436</ele><time>2009-09-13T08:09:48Z</time></trkpt>
<trkpt lat="50.41289010" lon="3.13022840"><ele>18.402344</ele><time>2009-09-13T08:09:56Z</time></trkpt>
<trkpt lat="50.41277710" lon="3.13011930"><ele>18.402344</ele><time>2009-09-13T08:09:58Z</time></trkpt>
<trkpt lat="50.41209220" lon="3.12947610"><ele>18.883057</ele><time>2009-09-13T08:10:11Z</time></trkpt>
<trkpt lat="50.41137710" lon="3.12882160"><ele>18.402344</ele><time>2009-09-13T08:10:24Z</time></trkpt>
<trkpt lat="50.41115490" lon="3.12862950"><ele>18.883057</ele><time>2009-09-13T08:10:28Z</time></trkpt>
<trkpt lat="50.41063860" lon="3.12851040"><ele>18.402344</ele><time>2009-09-13T08:10:36Z</time></trkpt>
<trkpt lat="50.41016180" lon="3.12852940"><ele>20.324951</ele><time>2009-09-13T08:10:44Z</time></trkpt>
<trkpt lat="50.41005980" lon="3.12855290"><ele>18.402344</ele><time>2009-09-13T08:10:49Z</time></trkpt>
<trkpt lat="50.40939590" lon="3.12750620"><ele>18.883057</ele><time>2009-09-13T08:11:05Z</time></trkpt>
<trkpt lat="50.40932210" lon="3.12740800"><ele>18.402344</ele><time>2009-09-13T08:11:07Z</time></trkpt>
<trkpt lat="50.40918440" lon="3.12695130"><ele>21.286377</ele><time>2009-09-13T08:11:16Z</time></trkpt>
<trkpt lat="50.40919480" lon="3.12678890"><ele>24.170288</ele><time>2009-09-13T08:11:20Z</time></trkpt>
<trkpt lat="50.40923410" lon="3.12659510"><ele>27.054321</ele><time>2009-09-13T08:11:24Z</time></trkpt>
<trkpt lat="50.40926910" lon="3.12645790"><ele>28.976929</ele><time>2009-09-13T08:11:27Z</time></trkpt>
<trkpt lat="50.40931430" lon="3.12638320"><ele>29.45752</ele><time>2009-09-13T08:11:36Z</time></trkpt>
<trkpt lat="50.40930070" lon="3.12635950"><ele>29.93811</ele><time>2009-09-13T08:11:38Z</time></trkpt>
<trkpt lat="50.40927520" lon="3.12631760"><ele>30.899536</ele><time>2009-09-13T08:11:40Z</time></trkpt>
<trkpt lat="50.40925840" lon="3.12624380"><ele>30.899536</ele><time>2009-09-13T08:11:45Z</time></trkpt>
<trkpt lat="50.40923240" lon="3.12627970"><ele>31.860718</ele><time>2009-09-13T08:11:48Z</time></trkpt>
<trkpt lat="50.40921970" lon="3.12636880"><ele>32.341553</ele><time>2009-09-13T08:12:05Z</time></trkpt>
<trkpt lat="50.40921960" lon="3.12637060"><ele>32.341553</ele><time>2009-09-13T08:12:14Z</time></trkpt>
<trkpt lat="50.40919200" lon="3.12648490"><ele>31.380127</ele><time>2009-09-13T08:12:18Z</time></trkpt>
<trkpt lat="50.40909110" lon="3.12673570"><ele>32.341553</ele><time>2009-09-13T08:12:26Z</time></trkpt>
<trkpt lat="50.40898150" lon="3.12691060"><ele>32.822266</ele><time>2009-09-13T08:12:40Z</time></trkpt>
<trkpt lat="50.40897460" lon="3.12691870"><ele>32.822266</ele><time>2009-09-13T08:13:54Z</time></trkpt>
<trkpt lat="50.40888290" lon="3.12722450"><ele>32.341553</ele><time>2009-09-13T08:14:03Z</time></trkpt>
<trkpt lat="50.40884180" lon="3.12730070"><ele>32.822266</ele><time>2009-09-13T08:14:05Z</time></trkpt>
<trkpt lat="50.40879280" lon="3.12747630"><ele>32.822266</ele><time>2009-09-13T08:14:09Z</time></trkpt>
<trkpt lat="50.40870390" lon="3.12751920"><ele>32.822266</ele><time>2009-09-13T08:14:13Z</time></trkpt>
<trkpt lat="50.40838710" lon="3.12791750"><ele>31.380127</ele><time>2009-09-13T08:14:15Z</time></trkpt>
<trkpt lat="50.40822140" lon="3.12762230"><ele>28.976929</ele><time>2009-09-13T08:14:19Z</time></trkpt>
<trkpt lat="50.40809580" lon="3.12737110"><ele>30.899536</ele><time>2009-09-13T08:14:23Z</time></trkpt>
<trkpt lat="50.40796490" lon="3.12706860"><ele>29.93811</ele><time>2009-09-13T08:14:27Z</time></trkpt>
<trkpt lat="50.40774220" lon="3.12663820"><ele>30.899536</ele><time>2009-09-13T08:14:35Z</time></trkpt>
<trkpt lat="50.40770610" lon="3.12656850"><ele>31.860718</ele><time>2009-09-13T08:14:37Z</time></trkpt>
<trkpt lat="50.40763130" lon="3.12641420"><ele>30.899536</ele><time>2009-09-13T08:14:41Z</time></trkpt>
<trkpt lat="50.40744600" lon="3.12601710"><ele>30.418823</ele><time>2009-09-13T08:14:49Z</time></trkpt>
<trkpt lat="50.40734330" lon="3.12579710"><ele>29.93811</ele><time>2009-09-13T08:14:53Z</time></trkpt>
<trkpt lat="50.40728010" lon="3.12566170"><ele>30.418823</ele><time>2009-09-13T08:14:55Z</time></trkpt>
<trkpt lat="50.40725790" lon="3.12561410"><ele>31.380127</ele><time>2009-09-13T08:14:57Z</time></trkpt>
<trkpt lat="50.40725790" lon="3.12561410"><ele>31.380127</ele><time>2009-09-13T08:15:06Z</time></trkpt>
<trkpt lat="50.40707590" lon="3.12522410"><ele>29.45752</ele><time>2009-09-13T08:15:14Z</time></trkpt>
<trkpt lat="50.40688730" lon="3.12485940"><ele>28.976929</ele><time>2009-09-13T08:15:20Z</time></trkpt>
<trkpt lat="50.40680030" lon="3.12469120"><ele>29.93811</ele><time>2009-09-13T08:15:22Z</time></trkpt>
<trkpt lat="50.40710250" lon="3.12420090"><ele>30.418823</ele><time>2009-09-13T08:15:24Z</time></trkpt>
<trkpt lat="50.40707080" lon="3.12410980"><ele>30.418823</ele><time>2009-09-13T08:15:26Z</time></trkpt>
<trkpt lat="50.40698610" lon="3.12390830"><ele>29.93811</ele><time>2009-09-13T08:15:30Z</time></trkpt>
<trkpt lat="50.40635650" lon="3.12373210"><ele>29.93811</ele><time>2009-09-13T08:15:40Z</time></trkpt>
<trkpt lat="50.40631230" lon="3.12364140"><ele>28.496216</ele><time>2009-09-13T08:15:42Z</time></trkpt>
<trkpt lat="50.40623530" lon="3.12348310"><ele>28.496216</ele><time>2009-09-13T08:15:44Z</time></trkpt>
<trkpt lat="50.40607280" lon="3.12318710"><ele>28.976929</ele><time>2009-09-13T08:15:50Z</time></trkpt>
<trkpt lat="50.40584830" lon="3.12283890"><ele>29.45752</ele><time>2009-09-13T08:16:00Z</time></trkpt>
<trkpt lat="50.40560900" lon="3.12253610"><ele>28.496216</ele><time>2009-09-13T08:16:13Z</time></trkpt>
<trkpt lat="50.40552710" lon="3.12244240"><ele>28.015503</ele><time>2009-09-13T08:16:16Z</time></trkpt>
<trkpt lat="50.40526170" lon="3.12215050"><ele>28.015503</ele><time>2009-09-13T08:16:24Z</time></trkpt>
<trkpt lat="50.40497440" lon="3.12191250"><ele>27.054321</ele><time>2009-09-13T08:16:32Z</time></trkpt>
<trkpt lat="50.40481150" lon="3.12163420"><ele>26.573608</ele><time>2009-09-13T08:16:36Z</time></trkpt>
<trkpt lat="50.40468320" lon="3.12144190"><ele>26.092896</ele><time>2009-09-13T08:16:39Z</time></trkpt>
<trkpt lat="50.40454510" lon="3.12124580"><ele>26.092896</ele><time>2009-09-13T08:16:43Z</time></trkpt>
<trkpt lat="50.40435050" lon="3.12100540"><ele>26.092896</ele><time>2009-09-13T08:16:47Z</time></trkpt>
<trkpt lat="50.40422200" lon="3.12084670"><ele>25.612305</ele><time>2009-09-13T08:16:50Z</time></trkpt>
<trkpt lat="50.40405660" lon="3.11952690"><ele>24.651001</ele><time>2009-09-13T08:16:59Z</time></trkpt>
<trkpt lat="50.40380370" lon="3.11925530"><ele>24.170288</ele><time>2009-09-13T08:17:04Z</time></trkpt>
<trkpt lat="50.40359610" lon="3.11900160"><ele>25.612305</ele><time>2009-09-13T08:17:08Z</time></trkpt>
<trkpt lat="50.40354200" lon="3.11891330"><ele>25.612305</ele><time>2009-09-13T08:17:10Z</time></trkpt>
<trkpt lat="50.40328860" lon="3.11860160"><ele>26.573608</ele><time>2009-09-13T08:17:19Z</time></trkpt>
<trkpt lat="50.40327210" lon="3.11833780"><ele>25.612305</ele><time>2009-09-13T08:17:25Z</time></trkpt>
<trkpt lat="50.40302310" lon="3.11771960"><ele>24.170288</ele><time>2009-09-13T08:17:35Z</time></trkpt>
<trkpt lat="50.40291590" lon="3.11740970"><ele>24.651001</ele><time>2009-09-13T08:17:39Z</time></trkpt>
<trkpt lat="50.40279510" lon="3.11701110"><ele>24.651001</ele><time>2009-09-13T08:17:43Z</time></trkpt>
<trkpt lat="50.40268640" lon="3.11676920"><ele>25.131714</ele><time>2009-09-13T08:17:46Z</time></trkpt>
<trkpt lat="50.40254910" lon="3.11651940"><ele>25.131714</ele><time>2009-09-13T08:17:49Z</time></trkpt>
<trkpt lat="50.40236930" lon="3.11606710"><ele>25.131714</ele><time>2009-09-13T08:17:54Z</time></trkpt>
<trkpt lat="50.40207080" lon="3.11536150"><ele>26.573608</ele><time>2009-09-13T08:18:05Z</time></trkpt>
<trkpt lat="50.40207080" lon="3.11536150"><ele>26.573608</ele><time>2009-09-13T08:18:27Z</time></trkpt>
<trkpt lat="50.40182770" lon="3.11487460"><ele>26.573608</ele><time>2009-09-13T08:18:38Z</time></trkpt>
<trkpt lat="50.40175100" lon="3.11466260"><ele>25.612305</ele><time>2009-09-13T08:18:42Z</time></trkpt>
<trkpt lat="50.40167700" lon="3.11443180"><ele>25.131714</ele><time>2009-09-13T08:18:47Z</time></trkpt>
<trkpt lat="50.40158530" lon="3.11409130"><ele>25.131714</ele><time>2009-09-13T08:18:50Z</time></trkpt>
<trkpt lat="50.40146980" lon="3.11359550"><ele>25.612305</ele><time>2009-09-13T08:18:55Z</time></trkpt>
<trkpt lat="50.40141570" lon="3.11335480"><ele>25.131714</ele><time>2009-09-13T08:18:58Z</time></trkpt>
<trkpt lat="50.40130880" lon="3.11287970"><ele>24.651001</ele><time>2009-09-13T08:19:04Z</time></trkpt>
<trkpt lat="50.40115750" lon="3.11220740"><ele>24.170288</ele><time>2009-09-13T08:19:11Z</time></trkpt>
<trkpt lat="50.40110640" lon="3.11198030"><ele>23.689575</ele><time>2009-09-13T08:19:13Z</time></trkpt>
<trkpt lat="50.40099980" lon="3.11150640"><ele>22.247559</ele><time>2009-09-13T08:19:17Z</time></trkpt>
<trkpt lat="50.40087940" lon="3.11097140"><ele>20.805664</ele><time>2009-09-13T08:19:21Z</time></trkpt>
<trkpt lat="50.40080220" lon="3.11022060"><ele>23.208984</ele><time>2009-09-13T08:19:27Z</time></trkpt>
<trkpt lat="50.40083250" lon="3.11004880"><ele>24.170288</ele><time>2009-09-13T08:19:29Z</time></trkpt>
<trkpt lat="50.40091710" lon="3.10963160"><ele>21.286377</ele><time>2009-09-13T08:19:35Z</time></trkpt>
<trkpt lat="50.40094820" lon="3.10954730"><ele>19.84436</ele><time>2009-09-13T08:19:36Z</time></trkpt>
<trkpt lat="50.40101580" lon="3.10936360"><ele>21.286377</ele><time>2009-09-13T08:19:38Z</time></trkpt>
<trkpt lat="50.40101930" lon="3.10913810"><ele>24.170288</ele><time>2009-09-13T08:19:44Z</time></trkpt>
<trkpt lat="50.40106080" lon="3.10903200"><ele>23.208984</ele><time>2009-09-13T08:19:48Z</time></trkpt>
<trkpt lat="50.40111130" lon="3.10902120"><ele>24.170288</ele><time>2009-09-13T08:19:50Z</time></trkpt>
<trkpt lat="50.40150190" lon="3.10870230"><ele>25.612305</ele><time>2009-09-13T08:20:03Z</time></trkpt>
<trkpt lat="50.40168620" lon="3.10856940"><ele>26.573608</ele><time>2009-09-13T08:20:09Z</time></trkpt>
<trkpt lat="50.40176700" lon="3.10827000"><ele>25.131714</ele><time>2009-09-13T08:20:14Z</time></trkpt>
<trkpt lat="50.40188990" lon="3.10820660"><ele>25.612305</ele><time>2009-09-13T08:20:18Z</time></trkpt>
<trkpt lat="50.40220850" lon="3.10800220"><ele>27.054321</ele><time>2009-09-13T08:20:27Z</time></trkpt>
<trkpt lat="50.40237330" lon="3.10797570"><ele>27.534912</ele><time>2009-09-13T08:20:32Z</time></trkpt>
<trkpt lat="50.40278690" lon="3.10746910"><ele>29.93811</ele><time>2009-09-13T08:20:45Z</time></trkpt>
<trkpt lat="50.40296720" lon="3.10738590"><ele>30.899536</ele><time>2009-09-13T08:20:51Z</time></trkpt>
<trkpt lat="50.40304390" lon="3.10736560"><ele>29.93811</ele><time>2009-09-13T08:20:53Z</time></trkpt>
<trkpt lat="50.40329600" lon="3.10728700"><ele>28.976929</ele><time>2009-09-13T08:20:58Z</time></trkpt>
<trkpt lat="50.40361400" lon="3.10716610"><ele>27.054321</ele><time>2009-09-13T08:21:04Z</time></trkpt>
<trkpt lat="50.40390300" lon="3.10718120"><ele>26.573608</ele><time>2009-09-13T08:21:09Z</time></trkpt>
<trkpt lat="50.40410630" lon="3.10716520"><ele>25.131714</ele><time>2009-09-13T08:21:12Z</time></trkpt>
<trkpt lat="50.40423470" lon="3.10721190"><ele>25.612305</ele><time>2009-09-13T08:21:14Z</time></trkpt>
<trkpt lat="50.40438990" lon="3.10726850"><ele>27.534912</ele><time>2009-09-13T08:21:17Z</time></trkpt>
<trkpt lat="50.40455240" lon="3.10739240"><ele>30.418823</ele><time>2009-09-13T08:21:20Z</time></trkpt>
<trkpt lat="50.40479630" lon="3.10759670"><ele>34.26416</ele><time>2009-09-13T08:21:25Z</time></trkpt>
<trkpt lat="50.40496390" lon="3.10770840"><ele>37.628662</ele><time>2009-09-13T08:21:29Z</time></trkpt>
<trkpt lat="50.40528650" lon="3.10803950"><ele>40.032104</ele><time>2009-09-13T08:21:40Z</time></trkpt>
<trkpt lat="50.40540940" lon="3.10825120"><ele>40.512817</ele><time>2009-09-13T08:21:46Z</time></trkpt>
<trkpt lat="50.40554940" lon="3.10850960"><ele>40.512817</ele><time>2009-09-13T08:21:55Z</time></trkpt>
<trkpt lat="50.40557230" lon="3.10855190"><ele>40.032104</ele><time>2009-09-13T08:21:56Z</time></trkpt>
<trkpt lat="50.40576310" lon="3.10901710"><ele>42.916016</ele><time>2009-09-13T08:22:05Z</time></trkpt>
<trkpt lat="50.40577890" lon="3.10906870"><ele>43.396606</ele><time>2009-09-13T08:22:06Z</time></trkpt>
<trkpt lat="50.40586710" lon="3.10935890"><ele>44.358032</ele><time>2009-09-13T08:22:10Z</time></trkpt>
<trkpt lat="50.40589540" lon="3.10999690"><ele>42.916016</ele><time>2009-09-13T08:22:17Z</time></trkpt>
<trkpt lat="50.40583130" lon="3.11045630"><ele>38.590088</ele><time>2009-09-13T08:22:21Z</time></trkpt>
<trkpt lat="50.40583620" lon="3.11079890"><ele>37.148071</ele><time>2009-09-13T08:22:24Z</time></trkpt>
<trkpt lat="50.40589870" lon="3.11116480"><ele>38.590088</ele><time>2009-09-13T08:22:28Z</time></trkpt>
<trkpt lat="50.40560920" lon="3.11229010"><ele>40.512817</ele><time>2009-09-13T08:22:35Z</time></trkpt>
<trkpt lat="50.40524760" lon="3.11250210"><ele>40.032104</ele><time>2009-09-13T08:22:42Z</time></trkpt>
<trkpt lat="50.40518570" lon="3.11253750"><ele>40.512817</ele><time>2009-09-13T08:22:43Z</time></trkpt>
<trkpt lat="50.40486930" lon="3.11271820"><ele>41.954712</ele><time>2009-09-13T08:22:48Z</time></trkpt>
<trkpt lat="50.40476080" lon="3.11278030"><ele>42.916016</ele><time>2009-09-13T08:22:50Z</time></trkpt>
<trkpt lat="50.40462800" lon="3.11285610"><ele>42.916016</ele><time>2009-09-13T08:22:53Z</time></trkpt>
<trkpt lat="50.40436630" lon="3.11300560"><ele>44.358032</ele><time>2009-09-13T08:22:59Z</time></trkpt>
<trkpt lat="50.40422770" lon="3.11308490"><ele>44.838623</ele><time>2009-09-13T08:23:03Z</time></trkpt>
<trkpt lat="50.40383180" lon="3.11331120"><ele>41.473999</ele><time>2009-09-13T08:23:14Z</time></trkpt>
<trkpt lat="50.40362380" lon="3.11342990"><ele>39.55127</ele><time>2009-09-13T08:23:18Z</time></trkpt>
<trkpt lat="50.40323340" lon="3.11365310"><ele>39.55127</ele><time>2009-09-13T08:23:27Z</time></trkpt>
<trkpt lat="50.40301640" lon="3.11377700"><ele>38.109375</ele><time>2009-09-13T08:24:10Z</time></trkpt>
<trkpt lat="50.40251290" lon="3.11404620"><ele>38.109375</ele><time>2009-09-13T08:24:24Z</time></trkpt>
<trkpt lat="50.40247920" lon="3.11406420"><ele>38.109375</ele><time>2009-09-13T08:24:25Z</time></trkpt>
<trkpt lat="50.40204360" lon="3.11437980"><ele>35.225464</ele><time>2009-09-13T08:24:36Z</time></trkpt>
<trkpt lat="50.40195590" lon="3.11451180"><ele>30.899536</ele><time>2009-09-13T08:24:40Z</time></trkpt>
<trkpt lat="50.40193620" lon="3.11454340"><ele>29.45752</ele><time>2009-09-13T08:24:41Z</time></trkpt>
<trkpt lat="50.40187080" lon="3.11470330"><ele>27.054321</ele><time>2009-09-13T08:24:44Z</time></trkpt>
<trkpt lat="50.40184380" lon="3.11477340"><ele>27.054321</ele><time>2009-09-13T08:24:46Z</time></trkpt>
<trkpt lat="50.40181880" lon="3.11483860"><ele>26.573608</ele><time>2009-09-13T08:25:02Z</time></trkpt>
<trkpt lat="50.40198270" lon="3.11514820"><ele>26.573608</ele><time>2009-09-13T08:25:22Z</time></trkpt>
<trkpt lat="50.40210540" lon="3.11544790"><ele>26.092896</ele><time>2009-09-13T08:25:50Z</time></trkpt>
<trkpt lat="50.40210540" lon="3.11544790"><ele>26.573608</ele><time>2009-09-13T08:26:02Z</time></trkpt>
<trkpt lat="50.40210540" lon="3.11544790"><ele>26.573608</ele><time>2009-09-13T08:26:36Z</time></trkpt>
<trkpt lat="50.40208000" lon="3.11538430"><ele>25.612305</ele><time>2009-09-13T08:26:40Z</time></trkpt>
<trkpt lat="50.40199970" lon="3.11518370"><ele>26.573608</ele><time>2009-09-13T08:26:50Z</time></trkpt>
<trkpt lat="50.40199970" lon="3.11518370"><ele>26.092896</ele><time>2009-09-13T08:27:12Z</time></trkpt>
<trkpt lat="50.40199970" lon="3.11518370"><ele>26.092896</ele><time>2009-09-13T08:28:27Z</time></trkpt>
<trkpt lat="50.40206220" lon="3.11533980"><ele>26.092896</ele><time>2009-09-13T08:28:33Z</time></trkpt>
<trkpt lat="50.40220780" lon="3.11568660"><ele>25.612305</ele><time>2009-09-13T08:28:41Z</time></trkpt>
<trkpt lat="50.40235820" lon="3.11603210"><ele>24.651001</ele><time>2009-09-13T08:28:47Z</time></trkpt>
<trkpt lat="50.40246200" lon="3.11636060"><ele>24.651001</ele><time>2009-09-13T08:28:52Z</time></trkpt>
<trkpt lat="50.40256480" lon="3.11654800"><ele>24.651001</ele><time>2009-09-13T08:28:55Z</time></trkpt>
<trkpt lat="50.40284700" lon="3.11718250"><ele>24.651001</ele><time>2009-09-13T08:29:06Z</time></trkpt>
<trkpt lat="50.40361360" lon="3.11759420"><ele>25.131714</ele><time>2009-09-13T08:29:19Z</time></trkpt>
<trkpt lat="50.40437860" lon="3.11794120"><ele>25.612305</ele><time>2009-09-13T08:29:33Z</time></trkpt>
<trkpt lat="50.40510480" lon="3.11815770"><ele>25.612305</ele><time>2009-09-13T08:29:46Z</time></trkpt>
<trkpt lat="50.40569250" lon="3.11833210"><ele>26.092896</ele><time>2009-09-13T08:29:57Z</time></trkpt>
<trkpt lat="50.40586470" lon="3.11839220"><ele>26.573608</ele><time>2009-09-13T08:30:00Z</time></trkpt>
<trkpt lat="50.40681580" lon="3.11875040"><ele>27.054321</ele><time>2009-09-13T08:30:17Z</time></trkpt>
<trkpt lat="50.40714350" lon="3.11903100"><ele>28.015503</ele><time>2009-09-13T08:30:24Z</time></trkpt>
<trkpt lat="50.40725100" lon="3.11908570"><ele>28.496216</ele><time>2009-09-13T08:30:31Z</time></trkpt>
<trkpt lat="50.40713580" lon="3.11902430"><ele>28.015503</ele><time>2009-09-13T08:30:33Z</time></trkpt>
<trkpt lat="50.40700110" lon="3.11890640"><ele>28.976929</ele><time>2009-09-13T08:30:45Z</time></trkpt>
<trkpt lat="50.40700110" lon="3.11890640"><ele>28.976929</ele><time>2009-09-13T08:30:49Z</time></trkpt>
<trkpt lat="50.40696730" lon="3.11832600"><ele>28.496216</ele><time>2009-09-13T08:30:56Z</time></trkpt>
<trkpt lat="50.40676780" lon="3.11828210"><ele>28.015503</ele><time>2009-09-13T08:31:05Z</time></trkpt>
<trkpt lat="50.40664070" lon="3.11819500"><ele>28.496216</ele><time>2009-09-13T08:31:11Z</time></trkpt>
<trkpt lat="50.40637410" lon="3.11811110"><ele>27.534912</ele><time>2009-09-13T08:31:18Z</time></trkpt>
<trkpt lat="50.40624670" lon="3.11794370"><ele>28.496216</ele><time>2009-09-13T08:31:24Z</time></trkpt>
<trkpt lat="50.40623000" lon="3.11791140"><ele>28.496216</ele><time>2009-09-13T08:31:25Z</time></trkpt>
<trkpt lat="50.40608980" lon="3.11800700"><ele>27.534912</ele><time>2009-09-13T08:31:31Z</time></trkpt>
<trkpt lat="50.40587320" lon="3.11796230"><ele>27.054321</ele><time>2009-09-13T08:31:37Z</time></trkpt>
<trkpt lat="50.40573410" lon="3.11834650"><ele>27.054321</ele><time>2009-09-13T08:31:39Z</time></trkpt>
<trkpt lat="50.40554090" lon="3.11827920"><ele>27.534912</ele><time>2009-09-13T08:31:44Z</time></trkpt>
<trkpt lat="50.40543400" lon="3.11824180"><ele>26.573608</ele><time>2009-09-13T08:31:48Z</time></trkpt>
<trkpt lat="50.40550760" lon="3.11746460"><ele>27.054321</ele><time>2009-09-13T08:31:53Z</time></trkpt>
<trkpt lat="50.40551620" lon="3.11710980"><ele>27.054321</ele><time>2009-09-13T08:31:59Z</time></trkpt>
<trkpt lat="50.40570960" lon="3.11682150"><ele>27.534912</ele><time>2009-09-13T08:32:06Z</time></trkpt>
<trkpt lat="50.40577240" lon="3.11682850"><ele>27.534912</ele><time>2009-09-13T08:32:08Z</time></trkpt>
<trkpt lat="50.40586010" lon="3.11681860"><ele>28.015503</ele><time>2009-09-13T08:32:12Z</time></trkpt>
<trkpt lat="50.40616590" lon="3.11680600"><ele>27.054321</ele><time>2009-09-13T08:32:22Z</time></trkpt>
<trkpt lat="50.40636600" lon="3.11703680"><ele>27.054321</ele><time>2009-09-13T08:32:29Z</time></trkpt>
<trkpt lat="50.40662520" lon="3.11734640"><ele>27.534912</ele><time>2009-09-13T08:32:37Z</time></trkpt>
<trkpt lat="50.40674190" lon="3.11747120"><ele>27.534912</ele><time>2009-09-13T08:32:41Z</time></trkpt>
<trkpt lat="50.40691520" lon="3.11779680"><ele>28.015503</ele><time>2009-09-13T08:32:47Z</time></trkpt>
<trkpt lat="50.40707160" lon="3.11811040"><ele>28.496216</ele><time>2009-09-13T08:32:55Z</time></trkpt>
<trkpt lat="50.40709260" lon="3.11813020"><ele>28.496216</ele><time>2009-09-13T08:32:56Z</time></trkpt>
<trkpt lat="50.40720610" lon="3.11842180"><ele>28.496216</ele><time>2009-09-13T08:33:04Z</time></trkpt>
<trkpt lat="50.40741260" lon="3.11869180"><ele>28.976929</ele><time>2009-09-13T08:33:13Z</time></trkpt>
<trkpt lat="50.40767330" lon="3.11867260"><ele>29.45752</ele><time>2009-09-13T08:33:21Z</time></trkpt>
<trkpt lat="50.40774360" lon="3.11867600"><ele>28.976929</ele><time>2009-09-13T08:33:23Z</time></trkpt>
<trkpt lat="50.40779240" lon="3.11875480"><ele>29.45752</ele><time>2009-09-13T08:33:27Z</time></trkpt>
<trkpt lat="50.40789240" lon="3.11891600"><ele>29.45752</ele><time>2009-09-13T08:33:31Z</time></trkpt>
<trkpt lat="50.40808590" lon="3.11894670"><ele>29.93811</ele><time>2009-09-13T08:33:37Z</time></trkpt>
<trkpt lat="50.40814140" lon="3.11882300"><ele>29.93811</ele><time>2009-09-13T08:33:41Z</time></trkpt>
<trkpt lat="50.40841270" lon="3.11890110"><ele>28.976929</ele><time>2009-09-13T08:33:50Z</time></trkpt>
<trkpt lat="50.40864520" lon="3.11912950"><ele>30.418823</ele><time>2009-09-13T08:33:58Z</time></trkpt>
<trkpt lat="50.40866530" lon="3.11918360"><ele>30.418823</ele><time>2009-09-13T08:34:00Z</time></trkpt>
<trkpt lat="50.40871550" lon="3.11918340"><ele>29.45752</ele><time>2009-09-13T08:34:02Z</time></trkpt>
<trkpt lat="50.40876470" lon="3.11961900"><ele>28.496216</ele><time>2009-09-13T08:34:04Z</time></trkpt>
<trkpt lat="50.40910310" lon="3.11969960"><ele>29.93811</ele><time>2009-09-13T08:34:12Z</time></trkpt>
<trkpt lat="50.40920980" lon="3.11970210"><ele>30.418823</ele><time>2009-09-13T08:34:22Z</time></trkpt>
<trkpt lat="50.40922260" lon="3.11977730"><ele>28.976929</ele><time>2009-09-13T08:34:27Z</time></trkpt>
<trkpt lat="50.40945830" lon="3.11983560"><ele>26.092896</ele><time>2009-09-13T08:34:40Z</time></trkpt>
<trkpt lat="50.40962200" lon="3.11985300"><ele>22.728271</ele><time>2009-09-13T08:34:45Z</time></trkpt>
<trkpt lat="50.40969610" lon="3.11984230"><ele>21.766968</ele><time>2009-09-13T08:34:47Z</time></trkpt>
<trkpt lat="50.40974620" lon="3.11980550"><ele>21.286377</ele><time>2009-09-13T08:34:49Z</time></trkpt>
<trkpt lat="50.40978470" lon="3.11974190"><ele>20.805664</ele><time>2009-09-13T08:35:03Z</time></trkpt>
<trkpt lat="50.40978400" lon="3.11974310"><ele>20.324951</ele><time>2009-09-13T08:35:10Z</time></trkpt>
<trkpt lat="50.40983850" lon="3.11978710"><ele>20.324951</ele><time>2009-09-13T08:35:14Z</time></trkpt>
<trkpt lat="50.41010310" lon="3.11953320"><ele>18.883057</ele><time>2009-09-13T08:35:27Z</time></trkpt>
<trkpt lat="50.41086070" lon="3.11881360"><ele>17.441162</ele><time>2009-09-13T08:35:43Z</time></trkpt>
<trkpt lat="50.41141500" lon="3.11824330"><ele>17.921753</ele><time>2009-09-13T08:35:55Z</time></trkpt>
<trkpt lat="50.41151760" lon="3.11805730"><ele>17.441162</ele><time>2009-09-13T08:35:59Z</time></trkpt>
<trkpt lat="50.41162580" lon="3.11777340"><ele>17.921753</ele><time>2009-09-13T08:36:02Z</time></trkpt>
<trkpt lat="50.41167370" lon="3.11751580"><ele>17.441162</ele><time>2009-09-13T08:36:06Z</time></trkpt>
<trkpt lat="50.41149480" lon="3.11696630"><ele>16.960449</ele><time>2009-09-13T08:36:13Z</time></trkpt>
<trkpt lat="50.41142060" lon="3.11673830"><ele>17.441162</ele><time>2009-09-13T08:36:16Z</time></trkpt>
<trkpt lat="50.41161630" lon="3.11635540"><ele>16.960449</ele><time>2009-09-13T08:36:23Z</time></trkpt>
<trkpt lat="50.41233130" lon="3.11574670"><ele>16.960449</ele><time>2009-09-13T08:36:37Z</time></trkpt>
<trkpt lat="50.41245530" lon="3.11525930"><ele>16.960449</ele><time>2009-09-13T08:36:44Z</time></trkpt>
<trkpt lat="50.41262340" lon="3.11492310"><ele>17.441162</ele><time>2009-09-13T08:36:49Z</time></trkpt>
<trkpt lat="50.41307610" lon="3.11415470"><ele>17.921753</ele><time>2009-09-13T08:37:01Z</time></trkpt>
<trkpt lat="50.41323420" lon="3.11384770"><ele>17.921753</ele><time>2009-09-13T08:37:06Z</time></trkpt>
<trkpt lat="50.41329860" lon="3.11372280"><ele>17.441162</ele><time>2009-09-13T08:37:10Z</time></trkpt>
<trkpt lat="50.41308670" lon="3.11264530"><ele>17.441162</ele><time>2009-09-13T08:37:22Z</time></trkpt>
<trkpt lat="50.41306440" lon="3.11239240"><ele>16.960449</ele><time>2009-09-13T08:37:25Z</time></trkpt>
<trkpt lat="50.41310920" lon="3.11088140"><ele>16.960449</ele><time>2009-09-13T08:37:42Z</time></trkpt>
<trkpt lat="50.41316280" lon="3.10967390"><ele>18.402344</ele><time>2009-09-13T08:37:56Z</time></trkpt>
<trkpt lat="50.41316670" lon="3.10958780"><ele>18.883057</ele><time>2009-09-13T08:37:58Z</time></trkpt>
<trkpt lat="50.41316800" lon="3.10955790"><ele>18.883057</ele><time>2009-09-13T08:37:59Z</time></trkpt>
<trkpt lat="50.41293780" lon="3.10942640"><ele>17.441162</ele><time>2009-09-13T08:38:05Z</time></trkpt>
<trkpt lat="50.41245280" lon="3.10923710"><ele>16.960449</ele><time>2009-09-13T08:38:14Z</time></trkpt>
<trkpt lat="50.41234260" lon="3.10890090"><ele>17.921753</ele><time>2009-09-13T08:38:21Z</time></trkpt>
<trkpt lat="50.41313420" lon="3.10850060"><ele>17.441162</ele><time>2009-09-13T08:38:37Z</time></trkpt>
<trkpt lat="50.41388700" lon="3.10811210"><ele>17.921753</ele><time>2009-09-13T08:38:51Z</time></trkpt>
<trkpt lat="50.41401040" lon="3.10761790"><ele>17.921753</ele><time>2009-09-13T08:38:58Z</time></trkpt>
<trkpt lat="50.41386780" lon="3.10609750"><ele>16.960449</ele><time>2009-09-13T08:39:15Z</time></trkpt>
<trkpt lat="50.41374190" lon="3.10469400"><ele>18.402344</ele><time>2009-09-13T08:39:31Z</time></trkpt>
<trkpt lat="50.41365060" lon="3.10360990"><ele>17.441162</ele><time>2009-09-13T08:39:44Z</time></trkpt>
<trkpt lat="50.41355250" lon="3.10268050"><ele>18.883057</ele><time>2009-09-13T08:39:56Z</time></trkpt>
<trkpt lat="50.41354600" lon="3.10262570"><ele>20.324951</ele><time>2009-09-13T08:39:59Z</time></trkpt>
<trkpt lat="50.41349690" lon="3.10210120"><ele>20.324951</ele><time>2009-09-13T08:40:10Z</time></trkpt>
<trkpt lat="50.41345220" lon="3.10141460"><ele>19.84436</ele><time>2009-09-13T08:40:22Z</time></trkpt>
<trkpt lat="50.41339250" lon="3.10074340"><ele>19.36377</ele><time>2009-09-13T08:40:34Z</time></trkpt>
<trkpt lat="50.41332020" lon="3.10003420"><ele>19.36377</ele><time>2009-09-13T08:40:47Z</time></trkpt>
<trkpt lat="50.41329860" lon="3.09972500"><ele>19.36377</ele><time>2009-09-13T08:40:52Z</time></trkpt>
<trkpt lat="50.41329860" lon="3.09887280"><ele>19.84436</ele><time>2009-09-13T08:41:06Z</time></trkpt>
<trkpt lat="50.41329860" lon="3.09867930"><ele>19.84436</ele><time>2009-09-13T08:41:13Z</time></trkpt>
<trkpt lat="50.41308370" lon="3.09859590"><ele>18.883057</ele><time>2009-09-13T08:41:18Z</time></trkpt>
<trkpt lat="50.41303220" lon="3.09859090"><ele>18.883057</ele><time>2009-09-13T08:41:19Z</time></trkpt>
<trkpt lat="50.41201890" lon="3.09851220"><ele>17.441162</ele><time>2009-09-13T08:41:36Z</time></trkpt>
<trkpt lat="50.41134910" lon="3.09848520"><ele>18.402344</ele><time>2009-09-13T08:41:47Z</time></trkpt>
<trkpt lat="50.41118540" lon="3.09803460"><ele>16.960449</ele><time>2009-09-13T08:41:54Z</time></trkpt>
<trkpt lat="50.41041910" lon="3.09709730"><ele>17.441162</ele><time>2009-09-13T08:42:07Z</time></trkpt>
<trkpt lat="50.40959230" lon="3.09672960"><ele>17.921753</ele><time>2009-09-13T08:42:20Z</time></trkpt>
<trkpt lat="50.40926480" lon="3.09623740"><ele>16.479736</ele><time>2009-09-13T08:42:28Z</time></trkpt>
<trkpt lat="50.40906070" lon="3.09599110"><ele>18.402344</ele><time>2009-09-13T08:42:34Z</time></trkpt>
<trkpt lat="50.40826080" lon="3.09636280"><ele>17.921753</ele><time>2009-09-13T08:42:50Z</time></trkpt>
<trkpt lat="50.40762630" lon="3.09638500"><ele>20.805664</ele><time>2009-09-13T08:43:03Z</time></trkpt>
<trkpt lat="50.40759890" lon="3.09638500"><ele>20.805664</ele><time>2009-09-13T08:43:05Z</time></trkpt>
<trkpt lat="50.40749360" lon="3.09639470"><ele>20.805664</ele><time>2009-09-13T08:43:09Z</time></trkpt>
<trkpt lat="50.40733430" lon="3.09642300"><ele>20.805664</ele><time>2009-09-13T08:43:13Z</time></trkpt>
<trkpt lat="50.40654870" lon="3.09656240"><ele>21.286377</ele><time>2009-09-13T08:43:30Z</time></trkpt>
<trkpt lat="50.40612150" lon="3.09664780"><ele>21.286377</ele><time>2009-09-13T08:43:41Z</time></trkpt>
<trkpt lat="50.40588460" lon="3.09671370"><ele>21.286377</ele><time>2009-09-13T08:43:46Z</time></trkpt>
<trkpt lat="50.40523240" lon="3.09708980"><ele>20.324951</ele><time>2009-09-13T08:43:59Z</time></trkpt>
<trkpt lat="50.40518820" lon="3.09713120"><ele>20.805664</ele><time>2009-09-13T08:44:00Z</time></trkpt>
<trkpt lat="50.40456200" lon="3.09777540"><ele>19.84436</ele><time>2009-09-13T08:44:12Z</time></trkpt>
<trkpt lat="50.40417570" lon="3.09817400"><ele>20.324951</ele><time>2009-09-13T08:44:22Z</time></trkpt>
<trkpt lat="50.40413530" lon="3.09822400"><ele>20.324951</ele><time>2009-09-13T08:44:23Z</time></trkpt>
<trkpt lat="50.40345290" lon="3.09901910"><ele>19.36377</ele><time>2009-09-13T08:44:37Z</time></trkpt>
<trkpt lat="50.40264920" lon="3.09992990"><ele>18.883057</ele><time>2009-09-13T08:44:52Z</time></trkpt>
<trkpt lat="50.40238680" lon="3.10022740"><ele>18.402344</ele><time>2009-09-13T08:44:57Z</time></trkpt>
<trkpt lat="50.40223650" lon="3.10009710"><ele>18.402344</ele><time>2009-09-13T08:45:02Z</time></trkpt>
<trkpt lat="50.40209370" lon="3.09969230"><ele>19.36377</ele><time>2009-09-13T08:45:10Z</time></trkpt>
<trkpt lat="50.40206550" lon="3.09961250"><ele>18.883057</ele><time>2009-09-13T08:45:17Z</time></trkpt>
<trkpt lat="50.40202500" lon="3.09938920"><ele>18.402344</ele><time>2009-09-13T08:45:22Z</time></trkpt>
<trkpt lat="50.40201190" lon="3.09836850"><ele>17.441162</ele><time>2009-09-13T08:45:34Z</time></trkpt>
<trkpt lat="50.40201190" lon="3.09787450"><ele>17.441162</ele><time>2009-09-13T08:45:39Z</time></trkpt>
<trkpt lat="50.40201190" lon="3.09768330"><ele>17.441162</ele><time>2009-09-13T08:45:41Z</time></trkpt>
<trkpt lat="50.40203550" lon="3.09736590"><ele>17.441162</ele><time>2009-09-13T08:45:44Z</time></trkpt>
<trkpt lat="50.40208580" lon="3.09693810"><ele>17.441162</ele><time>2009-09-13T08:45:48Z</time></trkpt>
<trkpt lat="50.40215890" lon="3.09660910"><ele>18.883057</ele><time>2009-09-13T08:45:52Z</time></trkpt>
<trkpt lat="50.40232280" lon="3.09619290"><ele>18.883057</ele><time>2009-09-13T08:46:00Z</time></trkpt>
<trkpt lat="50.40237320" lon="3.09592330"><ele>17.441162</ele><time>2009-09-13T08:46:03Z</time></trkpt>
<trkpt lat="50.40254460" lon="3.09454660"><ele>16.479736</ele><time>2009-09-13T08:46:15Z</time></trkpt>
<trkpt lat="50.40256400" lon="3.09434350"><ele>16.479736</ele><time>2009-09-13T08:46:17Z</time></trkpt>
<trkpt lat="50.40263410" lon="3.09396030"><ele>17.921753</ele><time>2009-09-13T08:46:22Z</time></trkpt>
<trkpt lat="50.40256930" lon="3.09370070"><ele>17.441162</ele><time>2009-09-13T08:46:26Z</time></trkpt>
<trkpt lat="50.40252840" lon="3.09353730"><ele>17.921753</ele><time>2009-09-13T08:46:28Z</time></trkpt>
<trkpt lat="50.40226780" lon="3.09266910"><ele>16.479736</ele><time>2009-09-13T08:46:38Z</time></trkpt>
<trkpt lat="50.40200410" lon="3.09173440"><ele>17.921753</ele><time>2009-09-13T08:46:49Z</time></trkpt>
<trkpt lat="50.40193710" lon="3.09142690"><ele>17.921753</ele><time>2009-09-13T08:46:53Z</time></trkpt>
<trkpt lat="50.40186170" lon="3.09106060"><ele>16.960449</ele><time>2009-09-13T08:46:58Z</time></trkpt>
<trkpt lat="50.40177800" lon="3.08996100"><ele>17.921753</ele><time>2009-09-13T08:47:10Z</time></trkpt>
<trkpt lat="50.40161350" lon="3.08876070"><ele>18.402344</ele><time>2009-09-13T08:47:23Z</time></trkpt>
<trkpt lat="50.40142490" lon="3.08749440"><ele>18.402344</ele><time>2009-09-13T08:47:36Z</time></trkpt>
<trkpt lat="50.40124810" lon="3.08636090"><ele>18.402344</ele><time>2009-09-13T08:47:48Z</time></trkpt>
<trkpt lat="50.40116820" lon="3.08587170"><ele>19.36377</ele><time>2009-09-13T08:47:54Z</time></trkpt>
<trkpt lat="50.40106380" lon="3.08555830"><ele>19.36377</ele><time>2009-09-13T08:48:00Z</time></trkpt>
<trkpt lat="50.40061080" lon="3.08565110"><ele>16.479736</ele><time>2009-09-13T08:48:08Z</time></trkpt>
<trkpt lat="50.40035900" lon="3.08575530"><ele>15.999023</ele><time>2009-09-13T08:48:11Z</time></trkpt>
<trkpt lat="50.39987010" lon="3.08630480"><ele>16.479736</ele><time>2009-09-13T08:48:18Z</time></trkpt>
<trkpt lat="50.39969250" lon="3.08689900"><ele>16.960449</ele><time>2009-09-13T08:48:23Z</time></trkpt>
<trkpt lat="50.39947720" lon="3.08804340"><ele>17.441162</ele><time>2009-09-13T08:48:33Z</time></trkpt>
<trkpt lat="50.39945840" lon="3.08884130"><ele>17.441162</ele><time>2009-09-13T08:48:41Z</time></trkpt>
<trkpt lat="50.39947980" lon="3.08981440"><ele>17.441162</ele><time>2009-09-13T08:48:52Z</time></trkpt>
<trkpt lat="50.39947990" lon="3.09117300"><ele>14.076416</ele><time>2009-09-13T08:49:05Z</time></trkpt>
<trkpt lat="50.39947130" lon="3.09149030"><ele>14.076416</ele><time>2009-09-13T08:49:07Z</time></trkpt>
<trkpt lat="50.39939400" lon="3.09185740"><ele>14.076416</ele><time>2009-09-13T08:49:10Z</time></trkpt>
<trkpt lat="50.39941010" lon="3.09229870"><ele>16.479736</ele><time>2009-09-13T08:49:14Z</time></trkpt>
<trkpt lat="50.39948660" lon="3.09285700"><ele>14.557007</ele><time>2009-09-13T08:49:18Z</time></trkpt>
<trkpt lat="50.39950010" lon="3.09330810"><ele>18.883057</ele><time>2009-09-13T08:49:22Z</time></trkpt>
<trkpt lat="50.39950130" lon="3.09335100"><ele>18.883057</ele><time>2009-09-13T08:49:23Z</time></trkpt>
<trkpt lat="50.39945140" lon="3.09339600"><ele>19.36377</ele><time>2009-09-13T08:49:28Z</time></trkpt>
<trkpt lat="50.39926720" lon="3.09346030"><ele>19.84436</ele><time>2009-09-13T08:49:40Z</time></trkpt>
<trkpt lat="50.39924420" lon="3.09346920"><ele>20.324951</ele><time>2009-09-13T08:49:50Z</time></trkpt>
</trkseg></trk></gpx>